Darstellungsparameter: Aktuell verwendete Einstellungen:
Skalierung der Graphiken ... ?
xyx+y,   Skalierungsfaktor:      Skalierung: Modus: x, Faktor: 1
Darstellungszeitraum ... ?
Vom - - bis: - -   Zeitraum: 16.04.2020 - 22.04.2020
Min/Max/Avg-Anzeige ... ?
Zeige MMA aktuell
Zeige MMA Monat
Zeige MMA alles
Zeige --A aktuell
Zeige --A Monat
Zeige --A alles
Keine MMA-Anzeige
MMA:
Keine MMA-Graphiken
MMA-Basis: 16.04.2020 - 22.04.2020
Quicknavigation für Darstellung... ?
Tage:      1T, 2T, 3T, 5T -1T -2T -3T -5T +1T +2T +3T +5T
Wochen: 1W, 2W, 3W -1W -2W -3W +1W +2W +3W
Monate: 1M, 3M, 6M -1M -3M -6M +1M +3M +6M
Jahre:    1J, 3J, 5J, 10J -1J -3J -5J -10J +1J +3J +5J +10J
Nutze für die Darstellung ... ?
Originaldaten oder Mittelwerte auf ...
Stundenbasis Tagesbasis Wochenbasis
Monatsbasis Jahresbasis      Datenbasis: Original-Daten
Darstellen als:
Statistik (Auto) Statistik J:M      Darstellung:
Zur Graphik,    zurück zur Übersicht aller Sensoren.
 
Tabellarische Datenbersicht: ?
 
Sensor: Nr:Datum:Temp:Feuchte:
Aussen-T/F 1 16-04-2020 00:02:17 6.2 C 32 %
2 16-04-2020 00:12:17 6 C 33 %
3 16-04-2020 00:22:17 5.8 C 34 %
4 16-04-2020 00:32:18 5.5 C 35 %
5 16-04-2020 00:42:18 5.3 C 35 %
6 16-04-2020 00:52:17 5.2 C 35 %
7 16-04-2020 01:02:17 4.8 C 35 %
8 16-04-2020 01:12:17 4.8 C 35 %
9 16-04-2020 01:22:17 5.1 C 35 %
10 16-04-2020 01:32:18 5.1 C 35 %
11 16-04-2020 01:42:18 4.7 C 36 %
12 16-04-2020 01:52:17 4.8 C 36 %
13 16-04-2020 02:02:18 4.6 C 36 %
14 16-04-2020 02:12:18 4.3 C 36 %
15 16-04-2020 02:22:18 3.9 C 38 %
16 16-04-2020 02:32:17 4.1 C 38 %
17 16-04-2020 02:42:17 4 C 38 %
18 16-04-2020 02:52:17 3.7 C 39 %
19 16-04-2020 03:02:17 3.6 C 40 %
20 16-04-2020 03:12:17 3.6 C 39 %
21 16-04-2020 03:22:17 3.5 C 39 %
22 16-04-2020 03:32:17 3.3 C 39 %
23 16-04-2020 03:42:17 3 C 40 %
24 16-04-2020 03:52:17 2.9 C 41 %
25 16-04-2020 04:02:17 3.2 C 40 %
Sensor: Nr:Datum:Temp:Feuchte:
Aussen-T/F 26 16-04-2020 04:12:17 3.2 C 40 %
27 16-04-2020 04:22:17 2.7 C 41 %
28 16-04-2020 04:32:18 2.6 C 41 %
29 16-04-2020 04:42:18 3 C 41 %
30 16-04-2020 04:52:17 2.6 C 42 %
31 16-04-2020 05:02:17 2.7 C 42 %
32 16-04-2020 05:12:17 2.7 C 42 %
33 16-04-2020 05:22:17 2.6 C 42 %
34 16-04-2020 05:32:17 2.3 C 42 %
35 16-04-2020 05:42:17 2 C 42 %
36 16-04-2020 05:52:17 2.1 C 43 %
37 16-04-2020 06:02:18 2.4 C 43 %
38 16-04-2020 06:12:18 2 C 42 %
39 16-04-2020 06:22:17 1.6 C 44 %
40 16-04-2020 06:32:17 1.4 C 44 %
41 16-04-2020 06:42:17 1.8 C 45 %
42 16-04-2020 06:52:17 1.8 C 45 %
43 16-04-2020 07:02:17 1.8 C 45 %
44 16-04-2020 07:12:17 1.8 C 45 %
45 16-04-2020 07:22:17 2.2 C 44 %
46 16-04-2020 07:32:17 2.1 C 44 %
47 16-04-2020 07:42:17 2.1 C 44 %
48 16-04-2020 07:52:17 2.5 C 44 %
49 16-04-2020 08:02:17 2.5 C 44 %
50 16-04-2020 08:12:17 2.6 C 44 %
Sensor: Nr:Datum:Temp:Feuchte:
Aussen-T/F 51 16-04-2020 08:22:17 3 C 43 %
52 16-04-2020 08:32:18 3.2 C 42 %
53 16-04-2020 08:42:18 3.5 C 42 %
54 16-04-2020 08:52:17 3.6 C 41 %
55 16-04-2020 09:02:18 3.9 C 41 %
56 16-04-2020 09:12:18 4.2 C 41 %
57 16-04-2020 09:22:17 4.5 C 40 %
58 16-04-2020 09:32:17 5.1 C 40 %
59 16-04-2020 09:42:17 5.8 C 39 %
60 16-04-2020 09:52:17 6.6 C 37 %
61 16-04-2020 10:02:18 7 C 36 %
62 16-04-2020 10:12:18 7.5 C 36 %
63 16-04-2020 10:22:17 8.1 C 35 %
64 16-04-2020 10:32:17 9.4 C 34 %
65 16-04-2020 10:42:18 10.4 C 31 %
66 16-04-2020 10:52:17 11.2 C 30 %
67 16-04-2020 11:02:18 12.2 C 29 %
68 16-04-2020 11:12:18 14.2 C 25 %
69 16-04-2020 11:22:17 15.5 C 20 %
70 16-04-2020 11:32:17 16.8 C 20 %
71 16-04-2020 11:42:17 17.6 C 20 %
72 16-04-2020 11:52:17 18 C 20 %
73 16-04-2020 12:02:18 18.4 C 20 %
74 16-04-2020 12:12:18 18.7 C 20 %
75 16-04-2020 12:22:17 19.1 C 20 %
Sensor: Nr:Datum:Temp:Feuchte:
Aussen-T/F 76 16-04-2020 12:32:18 19.3 C 20 %
77 16-04-2020 12:42:18 19.5 C 20 %
78 16-04-2020 12:52:17 19.6 C 20 %
79 16-04-2020 13:02:18 20.1 C 20 %
80 16-04-2020 13:12:18 20.5 C 20 %
81 16-04-2020 13:22:17 20.8 C 20 %
82 16-04-2020 13:32:18 21.1 C 20 %
83 16-04-2020 13:42:18 21.5 C 20 %
84 16-04-2020 13:52:17 21.7 C 20 %
85 16-04-2020 14:02:17 22 C 20 %
86 16-04-2020 14:12:17 22.4 C 20 %
87 16-04-2020 14:22:17 22.8 C 20 %
88 16-04-2020 14:32:17 26.2 C 20 %
89 16-04-2020 14:42:17 28 C 20 %
90 16-04-2020 14:52:17 29.6 C 20 %
91 16-04-2020 15:02:17 29.8 C 20 %
92 16-04-2020 15:12:17 29.5 C 20 %
93 16-04-2020 15:22:17 28.5 C 20 %
94 16-04-2020 15:32:18 30.1 C 20 %
95 16-04-2020 15:42:18 25.8 C 20 %
96 16-04-2020 15:52:17 27.1 C 20 %
97 16-04-2020 16:02:17 29.5 C 20 %
98 16-04-2020 16:12:17 28.4 C 20 %
99 16-04-2020 16:22:17 26.5 C 20 %
100 16-04-2020 16:32:17 26.6 C 20 %
Sensor: Nr:Datum:Temp:Feuchte:
Aussen-T/F 101 16-04-2020 16:42:18 27.2 C 20 %
102 16-04-2020 16:52:17 24.9 C 20 %
103 16-04-2020 17:02:17 25 C 20 %
104 16-04-2020 17:12:17 26.1 C 20 %
105 16-04-2020 17:22:18 28.3 C 20 %
106 16-04-2020 17:32:17 27.6 C 20 %
107 16-04-2020 17:42:17 27.3 C 20 %
108 16-04-2020 17:52:17 26.5 C 20 %
109 16-04-2020 18:02:17 25.6 C 20 %
110 16-04-2020 18:12:17 24.3 C 20 %
111 16-04-2020 18:22:17 24.4 C 20 %
112 16-04-2020 18:32:17 24.2 C 20 %
113 16-04-2020 18:42:17 23.9 C 20 %
114 16-04-2020 18:52:17 24 C 20 %
115 16-04-2020 19:02:17 23.2 C 20 %
116 16-04-2020 19:12:17 22.9 C 20 %
117 16-04-2020 19:22:17 22.2 C 20 %
118 16-04-2020 19:32:18 21.9 C 20 %
119 16-04-2020 19:42:18 21.2 C 20 %
120 16-04-2020 19:52:17 20.5 C 20 %
121 16-04-2020 20:02:17 19.5 C 20 %
122 16-04-2020 20:12:17 19.2 C 20 %
123 16-04-2020 20:22:17 19.3 C 20 %
124 16-04-2020 20:32:18 19.1 C 20 %
125 16-04-2020 20:42:18 18.9 C 20 %
Sensor: Nr:Datum:Temp:Feuchte:
Aussen-T/F 126 16-04-2020 20:52:18 18.5 C 20 %
127 16-04-2020 21:02:17 17.9 C 20 %
128 16-04-2020 21:12:17 16.5 C 20 %
129 16-04-2020 21:22:17 16.1 C 20 %
130 16-04-2020 21:32:18 15.5 C 20 %
131 16-04-2020 21:42:18 14.7 C 21 %
132 16-04-2020 21:52:17 14.4 C 22 %
133 16-04-2020 22:02:17 14.5 C 22 %
134 16-04-2020 22:12:17 13.5 C 25 %
135 16-04-2020 22:22:17 14.1 C 25 %
136 16-04-2020 22:32:17 13.8 C 25 %
137 16-04-2020 22:42:18 13.1 C 26 %
138 16-04-2020 22:52:17 12.4 C 28 %
139 16-04-2020 23:02:17 12.5 C 29 %
140 16-04-2020 23:12:17 12.2 C 30 %
141 16-04-2020 23:22:17 11.7 C 30 %
142 16-04-2020 23:32:18 11.6 C 31 %
143 16-04-2020 23:42:18 11.6 C 31 %
144 16-04-2020 23:52:17 11.8 C 31 %
145 17-04-2020 00:02:18 11.4 C 31 %
146 17-04-2020 00:12:18 11 C 31 %
147 17-04-2020 00:22:17 11 C 32 %
148 17-04-2020 00:32:17 11 C 32 %
149 17-04-2020 00:42:17 11 C 32 %
150 17-04-2020 00:52:18 10.4 C 33 %
Sensor: Nr:Datum:Temp:Feuchte:
Aussen-T/F 151 17-04-2020 01:02:17 10.1 C 34 %
152 17-04-2020 01:12:18 10.1 C 34 %
153 17-04-2020 01:22:18 9.8 C 35 %
154 17-04-2020 01:32:18 10 C 35 %
155 17-04-2020 01:42:18 10 C 35 %
156 17-04-2020 01:52:17 9.5 C 36 %
157 17-04-2020 02:02:17 9.7 C 36 %
158 17-04-2020 02:12:17 9.6 C 36 %
159 17-04-2020 02:22:17 9.1 C 36 %
160 17-04-2020 02:32:17 8.9 C 37 %
161 17-04-2020 02:42:17 8.5 C 38 %
162 17-04-2020 02:52:17 8.1 C 38 %
163 17-04-2020 03:02:17 7.9 C 39 %
164 17-04-2020 03:12:18 7.9 C 40 %
165 17-04-2020 03:22:18 7.8 C 40 %
166 17-04-2020 03:32:17 7.8 C 40 %
167 17-04-2020 03:42:18 7.8 C 40 %
168 17-04-2020 03:52:18 8.5 C 39 %
169 17-04-2020 04:02:17 8.4 C 39 %
170 17-04-2020 04:12:17 8.3 C 39 %
171 17-04-2020 04:22:17 8 C 39 %
172 17-04-2020 04:32:17 7.9 C 40 %
173 17-04-2020 04:42:17 8 C 40 %
174 17-04-2020 04:52:17 7.8 C 40 %
175 17-04-2020 05:02:17 7.5 C 40 %
Sensor: Nr:Datum:Temp:Feuchte:
Aussen-T/F 176 17-04-2020 05:12:18 6.9 C 41 %
177 17-04-2020 05:22:17 6.7 C 42 %
178 17-04-2020 05:32:18 6.6 C 42 %
179 17-04-2020 05:42:18 6.7 C 43 %
180 17-04-2020 05:52:18 6.5 C 42 %
181 17-04-2020 06:02:18 6.5 C 43 %
182 17-04-2020 06:12:18 6.2 C 43 %
183 17-04-2020 06:22:17 6 C 43 %
184 17-04-2020 06:32:17 6 C 44 %
185 17-04-2020 06:42:17 5.8 C 44 %
186 17-04-2020 06:52:17 5.8 C 44 %
187 17-04-2020 07:02:18 5.8 C 45 %
188 17-04-2020 07:12:18 5.9 C 45 %
189 17-04-2020 07:22:18 6.1 C 45 %
190 17-04-2020 07:32:17 6.1 C 45 %
191 17-04-2020 07:42:17 6.3 C 45 %
192 17-04-2020 07:52:17 6.3 C 45 %
193 17-04-2020 08:02:17 6.5 C 45 %
194 17-04-2020 08:12:17 6.7 C 45 %
195 17-04-2020 08:22:17 6.9 C 45 %
196 17-04-2020 08:32:18 7 C 44 %
197 17-04-2020 08:42:18 7.6 C 44 %
198 17-04-2020 08:52:17 7.9 C 44 %
199 17-04-2020 09:02:18 8.4 C 42 %
200 17-04-2020 09:12:18 8.6 C 42 %
Sensor: Nr:Datum:Temp:Feuchte:
Aussen-T/F 201 17-04-2020 09:22:17 8.8 C 41 %
202 17-04-2020 09:32:17 9.3 C 41 %
203 17-04-2020 09:42:17 9.6 C 40 %
204 17-04-2020 09:52:18 10.3 C 39 %
205 17-04-2020 10:02:17 10.8 C 38 %
206 17-04-2020 10:12:17 11 C 37 %
207 17-04-2020 10:22:18 11.8 C 36 %
208 17-04-2020 10:32:18 12.4 C 35 %
209 17-04-2020 10:42:18 13 C 34 %
210 17-04-2020 10:52:17 13.9 C 34 %
211 17-04-2020 11:02:17 14.6 C 32 %
212 17-04-2020 11:12:17 15.8 C 30 %
213 17-04-2020 11:22:18 16.5 C 28 %
214 17-04-2020 11:32:17 17.1 C 28 %
215 17-04-2020 11:42:17 17.7 C 26 %
216 17-04-2020 11:52:17 17.9 C 25 %
217 17-04-2020 12:02:18 18.5 C 25 %
218 17-04-2020 12:12:18 18.7 C 24 %
219 17-04-2020 12:22:17 19.1 C 22 %
220 17-04-2020 12:32:17 19.7 C 20 %
221 17-04-2020 12:42:17 19.7 C 20 %
222 17-04-2020 12:52:17 19.7 C 20 %
223 17-04-2020 13:02:18 20 C 20 %
224 17-04-2020 13:12:18 20.4 C 20 %
225 17-04-2020 13:22:17 20.6 C 20 %
Sensor: Nr:Datum:Temp:Feuchte:
Aussen-T/F 226 17-04-2020 13:32:17 20.8 C 20 %
227 17-04-2020 13:42:17 21.1 C 20 %
228 17-04-2020 13:52:17 21.6 C 20 %
229 17-04-2020 14:02:18 21.8 C 20 %
230 17-04-2020 14:12:18 22.6 C 20 %
231 17-04-2020 14:22:17 23.2 C 20 %
232 17-04-2020 14:32:17 25.2 C 20 %
233 17-04-2020 14:42:17 29 C 20 %
234 17-04-2020 14:52:17 32.1 C 20 %
235 17-04-2020 15:02:17 30.9 C 20 %
236 17-04-2020 15:12:17 31.4 C 20 %
237 17-04-2020 15:22:17 29.6 C 20 %
238 17-04-2020 15:32:17 29.2 C 20 %
239 17-04-2020 15:42:17 29 C 20 %
240 17-04-2020 15:52:18 25.7 C 20 %
241 17-04-2020 16:02:17 30.3 C 20 %
242 17-04-2020 16:12:17 30.2 C 20 %
243 17-04-2020 16:22:17 27.5 C 20 %
244 17-04-2020 16:32:17 28.2 C 20 %
245 17-04-2020 16:42:17 28.2 C 20 %
246 17-04-2020 16:52:17 27.7 C 20 %
247 17-04-2020 17:02:18 29.6 C 20 %
248 17-04-2020 17:12:18 29.4 C 20 %
249 17-04-2020 17:22:17 29.5 C 20 %
250 17-04-2020 17:32:17 30.4 C 20 %
Sensor: Nr:Datum:Temp:Feuchte:
Aussen-T/F 251 17-04-2020 17:42:18 27.7 C 20 %
252 17-04-2020 17:52:17 28.5 C 20 %
253 17-04-2020 18:02:17 26.6 C 20 %
254 17-04-2020 18:12:17 26.2 C 20 %
255 17-04-2020 18:22:17 25.7 C 20 %
256 17-04-2020 18:32:17 24.8 C 20 %
257 17-04-2020 18:42:17 24.7 C 20 %
258 17-04-2020 18:52:18 24.2 C 20 %
259 17-04-2020 19:02:17 24.1 C 20 %
260 17-04-2020 19:12:17 23.7 C 20 %
261 17-04-2020 19:22:17 23 C 20 %
262 17-04-2020 19:32:17 22.2 C 20 %
263 17-04-2020 19:42:17 21.7 C 20 %
264 17-04-2020 19:52:17 20.7 C 20 %
265 17-04-2020 20:02:17 20 C 20 %
266 17-04-2020 20:12:17 19.5 C 20 %
267 17-04-2020 20:22:17 18.8 C 21 %
268 17-04-2020 20:32:17 18.4 C 21 %
269 17-04-2020 20:42:17 18.2 C 21 %
270 17-04-2020 20:52:17 17.7 C 23 %
271 17-04-2020 21:02:17 17.5 C 23 %
272 17-04-2020 21:12:17 17.7 C 24 %
273 17-04-2020 21:22:17 17.6 C 25 %
274 17-04-2020 21:32:18 17.8 C 24 %
275 17-04-2020 21:42:18 17 C 25 %
Sensor: Nr:Datum:Temp:Feuchte:
Aussen-T/F 276 17-04-2020 21:52:18 16.8 C 25 %
277 17-04-2020 22:02:17 16 C 26 %
278 17-04-2020 22:12:17 16 C 26 %
279 17-04-2020 22:22:17 15.8 C 26 %
280 17-04-2020 22:32:17 15.7 C 26 %
281 17-04-2020 22:42:17 15.1 C 27 %
282 17-04-2020 22:52:17 14.6 C 29 %
283 17-04-2020 23:02:17 14.7 C 30 %
284 17-04-2020 23:12:17 14.4 C 29 %
285 17-04-2020 23:22:18 14.1 C 30 %
286 17-04-2020 23:32:17 14 C 30 %
287 17-04-2020 23:42:17 13.6 C 31 %
288 17-04-2020 23:52:17 13.5 C 31 %
289 18-04-2020 00:02:17 13.4 C 31 %
290 18-04-2020 00:12:17 13.1 C 32 %
291 18-04-2020 00:22:18 12.6 C 33 %
292 18-04-2020 00:32:17 12.2 C 33 %
293 18-04-2020 00:42:18 12 C 33 %
294 18-04-2020 00:52:17 11.8 C 34 %
295 18-04-2020 01:02:18 11.8 C 34 %
296 18-04-2020 01:12:18 11.8 C 34 %
297 18-04-2020 01:22:17 11.4 C 34 %
298 18-04-2020 01:32:18 11.1 C 35 %
299 18-04-2020 01:42:18 10.9 C 36 %
300 18-04-2020 01:52:17 10.9 C 36 %
Sensor: Nr:Datum:Temp:Feuchte:
Aussen-T/F 301 18-04-2020 02:02:18 10.8 C 36 %
302 18-04-2020 02:12:18 10.6 C 36 %
303 18-04-2020 02:22:17 10.7 C 36 %
304 18-04-2020 02:32:17 10.1 C 37 %
305 18-04-2020 02:42:17 10 C 38 %
306 18-04-2020 02:52:18 9.8 C 38 %
307 18-04-2020 03:02:17 9.7 C 39 %
308 18-04-2020 03:12:17 9.6 C 39 %
309 18-04-2020 03:22:18 9.2 C 39 %
310 18-04-2020 03:32:18 9 C 39 %
311 18-04-2020 03:42:18 9 C 39 %
312 18-04-2020 03:52:18 8.9 C 40 %
313 18-04-2020 04:02:17 9 C 40 %
314 18-04-2020 04:12:17 9 C 40 %
315 18-04-2020 04:22:17 9 C 40 %
316 18-04-2020 04:32:18 8.9 C 41 %
317 18-04-2020 04:42:18 8.8 C 41 %
318 18-04-2020 04:52:17 8.6 C 41 %
319 18-04-2020 05:02:17 8.4 C 41 %
320 18-04-2020 05:12:17 8.5 C 41 %
321 18-04-2020 05:22:17 8.7 C 40 %
322 18-04-2020 05:32:17 8.6 C 41 %
323 18-04-2020 05:42:17 8.3 C 41 %
324 18-04-2020 05:52:18 8.6 C 41 %
325 18-04-2020 06:02:17 8.7 C 41 %
Sensor: Nr:Datum:Temp:Feuchte:
Aussen-T/F 326 18-04-2020 06:12:17 8.6 C 41 %
327 18-04-2020 06:22:17 8.7 C 41 %
328 18-04-2020 06:32:17 8.3 C 41 %
329 18-04-2020 06:42:17 8.1 C 41 %
330 18-04-2020 06:52:17 8.2 C 41 %
331 18-04-2020 07:02:17 8.4 C 42 %
332 18-04-2020 07:12:17 8.7 C 42 %
333 18-04-2020 07:22:17 9.4 C 42 %
334 18-04-2020 07:32:17 9.6 C 41 %
335 18-04-2020 07:42:17 9.7 C 41 %
336 18-04-2020 07:52:17 9.7 C 41 %
337 18-04-2020 08:02:18 9.7 C 41 %
338 18-04-2020 08:12:18 10 C 40 %
339 18-04-2020 08:22:17 10.1 C 40 %
340 18-04-2020 08:32:17 10.2 C 40 %
341 18-04-2020 08:42:18 10.6 C 40 %
342 18-04-2020 08:52:18 11.1 C 39 %
343 18-04-2020 09:02:17 11.7 C 38 %
344 18-04-2020 09:12:17 12.1 C 37 %
345 18-04-2020 09:22:17 12.5 C 36 %
346 18-04-2020 09:32:18 13.4 C 35 %
347 18-04-2020 09:42:18 13.8 C 34 %
348 18-04-2020 09:52:18 14.4 C 32 %
349 18-04-2020 10:02:18 15 C 31 %
350 18-04-2020 10:12:18 14.9 C 31 %
Sensor: Nr:Datum:Temp:Feuchte:
Aussen-T/F 351 18-04-2020 10:22:18 16.2 C 30 %
352 18-04-2020 10:32:18 15.8 C 30 %
353 18-04-2020 10:42:18 17.2 C 29 %
354 18-04-2020 10:52:18 17.9 C 29 %
355 18-04-2020 11:02:18 18.5 C 27 %
356 18-04-2020 11:12:18 18.3 C 27 %
357 18-04-2020 11:22:17 18.5 C 26 %
358 18-04-2020 11:32:18 17.8 C 27 %
359 18-04-2020 11:42:18 18.6 C 26 %
360 18-04-2020 11:52:18 18.9 C 27 %
361 18-04-2020 12:02:17 19.1 C 26 %
362 18-04-2020 12:12:17 20 C 25 %
363 18-04-2020 12:22:18 20.2 C 24 %
364 18-04-2020 12:32:18 20.1 C 24 %
365 18-04-2020 12:42:18 19.6 C 25 %
366 18-04-2020 12:52:17 19.3 C 25 %
367 18-04-2020 13:02:17 20.8 C 24 %
368 18-04-2020 13:12:17 21.8 C 21 %
369 18-04-2020 13:22:18 21.5 C 20 %
370 18-04-2020 13:32:18 21.8 C 20 %
371 18-04-2020 13:42:18 22.4 C 20 %
372 18-04-2020 13:52:18 21.6 C 20 %
373 18-04-2020 14:02:18 21.2 C 20 %
374 18-04-2020 14:12:18 21.7 C 20 %
375 18-04-2020 14:22:18 22.4 C 20 %
Sensor: Nr:Datum:Temp:Feuchte:
Aussen-T/F 376 18-04-2020 14:32:17 22.4 C 20 %
377 18-04-2020 14:42:17 22.8 C 20 %
378 18-04-2020 14:52:17 22.6 C 20 %
379 18-04-2020 15:02:17 25.4 C 20 %
380 18-04-2020 15:12:18 30.4 C 20 %
381 18-04-2020 15:22:17 28.2 C 20 %
382 18-04-2020 15:32:17 23.8 C 20 %
383 18-04-2020 15:42:17 23.2 C 20 %
384 18-04-2020 15:52:17 22.2 C 20 %
385 18-04-2020 16:02:18 21.8 C 20 %
386 18-04-2020 16:12:18 21.8 C 20 %
387 18-04-2020 16:22:18 20.6 C 20 %
388 18-04-2020 16:32:17 19.7 C 25 %
389 18-04-2020 16:42:17 20 C 25 %
390 18-04-2020 16:52:17 19.9 C 25 %
391 18-04-2020 17:02:17 19.1 C 26 %
392 18-04-2020 17:12:17 18.9 C 27 %
393 18-04-2020 17:22:17 18.7 C 28 %
394 18-04-2020 17:32:18 17.6 C 33 %
395 18-04-2020 17:42:18 17.5 C 33 %
396 18-04-2020 17:52:18 17.4 C 33 %
397 18-04-2020 18:02:18 17.3 C 34 %
398 18-04-2020 18:12:18 17.1 C 34 %
399 18-04-2020 18:22:17 17.3 C 33 %
400 18-04-2020 18:32:18 17.7 C 31 %
Sensor: Nr:Datum:Temp:Feuchte:
Aussen-T/F 401 18-04-2020 18:42:18 17.7 C 31 %
402 18-04-2020 18:52:17 17.9 C 30 %
403 18-04-2020 19:02:18 18.1 C 30 %
404 18-04-2020 19:12:18 17.9 C 30 %
405 18-04-2020 19:22:17 17.6 C 30 %
406 18-04-2020 19:32:17 17.8 C 30 %
407 18-04-2020 19:42:17 18.1 C 29 %
408 18-04-2020 19:52:18 17.7 C 30 %
409 18-04-2020 20:02:17 17.3 C 30 %
410 18-04-2020 20:12:17 16.5 C 30 %
411 18-04-2020 20:22:17 15.9 C 31 %
412 18-04-2020 20:32:17 15 C 32 %
413 18-04-2020 20:42:17 14.8 C 34 %
414 18-04-2020 20:52:17 14.5 C 34 %
415 18-04-2020 21:02:18 14.5 C 35 %
416 18-04-2020 21:12:18 14.9 C 34 %
417 18-04-2020 21:22:17 15 C 33 %
418 18-04-2020 21:32:17 15.1 C 33 %
419 18-04-2020 21:42:17 15 C 33 %
420 18-04-2020 21:52:18 14.8 C 34 %
421 18-04-2020 22:02:17 14.4 C 34 %
422 18-04-2020 22:12:17 14.5 C 35 %
423 18-04-2020 22:22:17 13.7 C 35 %
424 18-04-2020 22:32:18 13.4 C 36 %
425 18-04-2020 22:42:18 12.8 C 37 %
Sensor: Nr:Datum:Temp:Feuchte:
Aussen-T/F 426 18-04-2020 22:52:17 12.8 C 37 %
427 18-04-2020 23:02:18 12.7 C 38 %
428 18-04-2020 23:12:18 12.3 C 38 %
429 18-04-2020 23:22:17 12.1 C 38 %
430 18-04-2020 23:32:17 11.7 C 40 %
431 18-04-2020 23:42:17 11.1 C 40 %
432 18-04-2020 23:52:17 10.9 C 42 %
433 19-04-2020 00:02:18 10.6 C 43 %
434 19-04-2020 00:12:18 10.7 C 43 %
435 19-04-2020 00:22:17 10.2 C 43 %
436 19-04-2020 00:32:17 10.2 C 43 %
437 19-04-2020 00:42:17 10.1 C 44 %
438 19-04-2020 00:52:17 9.8 C 44 %
439 19-04-2020 01:02:17 9.8 C 45 %
440 19-04-2020 01:12:17 9.9 C 45 %
441 19-04-2020 01:22:17 9.6 C 44 %
442 19-04-2020 01:32:17 9.6 C 45 %
443 19-04-2020 01:42:17 9.9 C 45 %
444 19-04-2020 01:52:17 9.5 C 45 %
445 19-04-2020 02:02:17 9.5 C 45 %
446 19-04-2020 02:12:18 9.6 C 45 %
447 19-04-2020 02:22:17 9.7 C 45 %
448 19-04-2020 02:32:17 10 C 45 %
449 19-04-2020 02:42:17 10 C 44 %
450 19-04-2020 02:52:17 9.8 C 45 %
Sensor: Nr:Datum:Temp:Feuchte:
Aussen-T/F 451 19-04-2020 03:02:17 9.6 C 45 %
452 19-04-2020 03:12:17 9.3 C 44 %
453 19-04-2020 03:22:17 9.1 C 45 %
454 19-04-2020 03:32:17 8.9 C 45 %
455 19-04-2020 03:42:17 8.7 C 45 %
456 19-04-2020 03:52:17 8.7 C 45 %
457 19-04-2020 04:02:17 8.5 C 45 %
458 19-04-2020 04:12:17 9.2 C 45 %
459 19-04-2020 04:22:17 9.2 C 45 %
460 19-04-2020 04:32:17 9.4 C 45 %
461 19-04-2020 04:42:17 9.6 C 45 %
462 19-04-2020 04:52:17 9.6 C 45 %
463 19-04-2020 05:02:17 9.7 C 45 %
464 19-04-2020 05:12:17 9.6 C 45 %
465 19-04-2020 05:22:18 9.6 C 45 %
466 19-04-2020 05:32:17 9.7 C 45 %
467 19-04-2020 05:42:17 9.7 C 45 %
468 19-04-2020 05:52:17 9.8 C 45 %
469 19-04-2020 06:02:17 9.9 C 45 %
470 19-04-2020 06:12:17 10.1 C 44 %
471 19-04-2020 06:22:17 10.1 C 44 %
472 19-04-2020 06:32:17 10.2 C 44 %
473 19-04-2020 06:42:17 10.2 C 44 %
474 19-04-2020 06:52:18 10.3 C 44 %
475 19-04-2020 07:02:18 10.3 C 44 %
Sensor: Nr:Datum:Temp:Feuchte:
Aussen-T/F 476 19-04-2020 07:12:18 10.4 C 44 %
477 19-04-2020 07:22:17 10.6 C 44 %
478 19-04-2020 07:32:18 10.5 C 43 %
479 19-04-2020 07:42:18 10.6 C 43 %
480 19-04-2020 07:52:17 10.6 C 43 %
481 19-04-2020 08:02:17 10.7 C 43 %
482 19-04-2020 08:12:17 11.3 C 42 %
483 19-04-2020 08:22:17 11.5 C 41 %
484 19-04-2020 08:32:17 12 C 40 %
485 19-04-2020 08:42:17 12.4 C 39 %
486 19-04-2020 08:52:17 13.2 C 37 %
487 19-04-2020 09:02:17 12.5 C 38 %
488 19-04-2020 09:12:18 13 C 37 %
489 19-04-2020 09:22:18 13.2 C 36 %
490 19-04-2020 09:32:17 13.5 C 36 %
491 19-04-2020 09:42:17 13.8 C 36 %
492 19-04-2020 09:52:17 13.8 C 35 %
493 19-04-2020 10:02:17 13.7 C 35 %
494 19-04-2020 10:12:17 14.2 C 35 %
495 19-04-2020 10:22:17 14.7 C 34 %
496 19-04-2020 10:32:17 15.5 C 33 %
497 19-04-2020 10:42:17 16.4 C 31 %
498 19-04-2020 10:52:17 16.4 C 31 %
499 19-04-2020 11:02:17 15.7 C 32 %
500 19-04-2020 11:12:17 14.7 C 33 %
Sensor: Nr:Datum:Temp:Feuchte:
Aussen-T/F 501 19-04-2020 11:22:17 14.7 C 33 %
502 19-04-2020 11:32:17 14.4 C 34 %
503 19-04-2020 11:42:17 14 C 34 %
504 19-04-2020 11:52:17 13.8 C 35 %
505 19-04-2020 12:02:17 14.2 C 34 %
506 19-04-2020 12:12:17 14.7 C 34 %
507 19-04-2020 12:22:17 16 C 31 %
508 19-04-2020 12:32:18 16 C 31 %
509 19-04-2020 12:42:18 16.3 C 30 %
510 19-04-2020 12:52:17 16.9 C 30 %
511 19-04-2020 13:02:17 17.4 C 28 %
512 19-04-2020 13:12:17 16.9 C 29 %
513 19-04-2020 13:22:17 17.4 C 27 %
514 19-04-2020 13:32:17 18.8 C 26 %
515 19-04-2020 13:42:17 19.1 C 25 %
516 19-04-2020 13:52:17 19.3 C 25 %
517 19-04-2020 14:02:18 18.8 C 25 %
518 19-04-2020 14:12:18 18.6 C 25 %
519 19-04-2020 14:22:17 18.1 C 25 %
520 19-04-2020 14:32:17 17.4 C 26 %
521 19-04-2020 14:42:17 18 C 26 %
522 19-04-2020 14:52:17 17.1 C 26 %
523 19-04-2020 15:02:18 16.9 C 26 %
524 19-04-2020 15:12:18 16.6 C 26 %
525 19-04-2020 15:22:17 17 C 25 %
Sensor: Nr:Datum:Temp:Feuchte:
Aussen-T/F 526 19-04-2020 15:32:17 17.2 C 25 %
527 19-04-2020 15:42:18 17.8 C 25 %
528 19-04-2020 15:52:18 18.1 C 24 %
529 19-04-2020 16:02:17 19.2 C 22 %
530 19-04-2020 16:12:17 22.2 C 20 %
531 19-04-2020 16:22:17 20.2 C 20 %
532 19-04-2020 16:32:17 18.6 C 20 %
533 19-04-2020 16:42:17 20.5 C 20 %
534 19-04-2020 16:52:17 21.3 C 20 %
535 19-04-2020 17:02:17 17.5 C 20 %
536 19-04-2020 17:12:17 18.6 C 20 %
537 19-04-2020 17:22:17 19.7 C 20 %
538 19-04-2020 17:32:18 18.9 C 20 %
539 19-04-2020 17:42:18 19.2 C 20 %
540 19-04-2020 17:52:17 18.6 C 20 %
541 19-04-2020 18:02:18 17.4 C 20 %
542 19-04-2020 18:12:18 17.3 C 20 %
543 19-04-2020 18:22:17 17.3 C 20 %
544 19-04-2020 18:32:17 17.3 C 20 %
545 19-04-2020 18:42:17 16.8 C 20 %
546 19-04-2020 18:52:17 16.8 C 20 %
547 19-04-2020 19:02:17 16.8 C 20 %
548 19-04-2020 19:12:17 16.7 C 20 %
549 19-04-2020 19:22:17 16.3 C 20 %
550 19-04-2020 19:32:18 16 C 20 %
Sensor: Nr:Datum:Temp:Feuchte:
Aussen-T/F 551 19-04-2020 19:42:18 15.6 C 20 %
552 19-04-2020 19:52:17 15.1 C 20 %
553 19-04-2020 20:02:18 14.7 C 20 %
554 19-04-2020 20:12:18 13.7 C 23 %
555 19-04-2020 20:22:17 13.3 C 24 %
556 19-04-2020 20:32:17 13 C 25 %
557 19-04-2020 20:42:17 12.5 C 26 %
558 19-04-2020 20:52:17 12.3 C 26 %
559 19-04-2020 21:02:18 12 C 26 %
560 19-04-2020 21:12:18 12 C 26 %
561 19-04-2020 21:22:17 11.7 C 27 %
562 19-04-2020 21:32:17 11.5 C 27 %
563 19-04-2020 21:42:17 11.4 C 27 %
564 19-04-2020 21:52:17 11 C 27 %
565 19-04-2020 22:02:17 11.2 C 26 %
566 19-04-2020 22:12:17 11 C 26 %
567 19-04-2020 22:22:17 11.1 C 26 %
568 19-04-2020 22:32:17 10.9 C 26 %
569 19-04-2020 22:42:17 10.3 C 26 %
570 19-04-2020 22:52:17 10.2 C 26 %
571 19-04-2020 23:02:18 11.1 C 25 %
572 19-04-2020 23:12:18 10.1 C 25 %
573 19-04-2020 23:22:18 9.7 C 27 %
574 19-04-2020 23:32:17 10.3 C 22 %
575 19-04-2020 23:42:17 10.3 C 25 %
Sensor: Nr:Datum:Temp:Feuchte:
Aussen-T/F 576 19-04-2020 23:52:17 10.3 C 23 %
577 20-04-2020 00:02:17 10.1 C 25 %
578 20-04-2020 00:12:17 9.6 C 25 %
579 20-04-2020 00:22:17 10.1 C 21 %
580 20-04-2020 00:32:18 9.9 C 23 %
581 20-04-2020 00:42:18 9.6 C 25 %
582 20-04-2020 00:52:18 9.3 C 25 %
583 20-04-2020 01:02:17 9.8 C 23 %
584 20-04-2020 01:12:17 9.3 C 23 %
585 20-04-2020 01:22:17 9.1 C 21 %
586 20-04-2020 01:32:17 9.6 C 21 %
587 20-04-2020 01:42:17 9.1 C 21 %
588 20-04-2020 01:52:17 8.5 C 25 %
589 20-04-2020 02:02:18 8.1 C 26 %
590 20-04-2020 02:12:18 7.9 C 26 %
591 20-04-2020 02:22:17 7.5 C 27 %
592 20-04-2020 02:32:18 7.3 C 27 %
593 20-04-2020 02:42:18 7.3 C 27 %
594 20-04-2020 02:52:17 7.3 C 27 %
595 20-04-2020 03:02:17 7 C 27 %
596 20-04-2020 03:12:17 6.9 C 28 %
597 20-04-2020 03:22:17 6.7 C 29 %
598 20-04-2020 03:32:17 6.9 C 28 %
599 20-04-2020 03:42:17 6.9 C 28 %
600 20-04-2020 03:52:17 6.7 C 29 %
Sensor: Nr:Datum:Temp:Feuchte:
Aussen-T/F 601 20-04-2020 04:02:17 6.6 C 28 %
602 20-04-2020 04:12:17 6.5 C 28 %
603 20-04-2020 04:22:17 6.4 C 29 %
604 20-04-2020 04:32:18 6.4 C 28 %
605 20-04-2020 04:42:18 6.4 C 28 %
606 20-04-2020 04:52:17 6.2 C 29 %
607 20-04-2020 05:02:18 6.4 C 29 %
608 20-04-2020 05:12:18 6.3 C 29 %
609 20-04-2020 05:22:17 6.3 C 29 %
610 20-04-2020 05:32:17 6.2 C 30 %
611 20-04-2020 05:42:18 6.3 C 29 %
612 20-04-2020 05:52:17 6.3 C 29 %
613 20-04-2020 06:02:18 6 C 30 %
614 20-04-2020 06:12:18 5.9 C 30 %
615 20-04-2020 06:22:17 5.9 C 30 %
616 20-04-2020 06:32:17 6.1 C 30 %
617 20-04-2020 06:42:17 6.1 C 30 %
618 20-04-2020 06:52:17 5.9 C 30 %
619 20-04-2020 07:02:17 6.1 C 30 %
620 20-04-2020 07:12:17 6.2 C 30 %
621 20-04-2020 07:22:17 6.2 C 30 %
622 20-04-2020 07:32:17 6.4 C 30 %
623 20-04-2020 07:42:17 7.2 C 27 %
624 20-04-2020 07:52:17 7.4 C 27 %
625 20-04-2020 08:02:18 7.3 C 27 %
Sensor: Nr:Datum:Temp:Feuchte:
Aussen-T/F 626 20-04-2020 08:12:18 7.9 C 26 %
627 20-04-2020 08:22:17 7.8 C 27 %
628 20-04-2020 08:32:17 7.7 C 28 %
629 20-04-2020 08:42:18 7.9 C 26 %
630 20-04-2020 08:52:18 8.1 C 26 %
631 20-04-2020 09:02:17 8.3 C 26 %
632 20-04-2020 09:12:17 8.2 C 27 %
633 20-04-2020 09:22:17 8.4 C 27 %
634 20-04-2020 09:32:17 9 C 25 %
635 20-04-2020 09:42:17 9.4 C 25 %
636 20-04-2020 09:52:18 9.4 C 26 %
637 20-04-2020 10:02:18 9.9 C 26 %
638 20-04-2020 10:12:18 10.7 C 22 %
639 20-04-2020 10:22:17 11.4 C 20 %
640 20-04-2020 10:32:17 12.1 C 20 %
641 20-04-2020 10:42:18 12.7 C 20 %
642 20-04-2020 10:52:17 13.1 C 20 %
643 20-04-2020 11:02:18 13.7 C 20 %
644 20-04-2020 11:12:18 14 C 20 %
645 20-04-2020 11:22:17 14.4 C 20 %
646 20-04-2020 11:32:17 14.7 C 20 %
647 20-04-2020 11:42:18 14.8 C 20 %
648 20-04-2020 11:52:17 15 C 20 %
649 20-04-2020 12:02:17 15.2 C 20 %
650 20-04-2020 12:12:17 15 C 20 %
Sensor: Nr:Datum:Temp:Feuchte:
Aussen-T/F 651 20-04-2020 12:22:17 15 C 20 %
652 20-04-2020 12:32:17 15.1 C 20 %
653 20-04-2020 12:42:17 15.1 C 20 %
654 20-04-2020 12:52:17 15.4 C 20 %
655 20-04-2020 13:02:17 15.4 C 20 %
656 20-04-2020 13:12:17 16 C 20 %
657 20-04-2020 13:22:17 15.8 C 20 %
658 20-04-2020 13:32:17 16.1 C 20 %
659 20-04-2020 13:42:17 16.1 C 20 %
660 20-04-2020 13:52:17 16.8 C 20 %
661 20-04-2020 14:02:17 16.9 C 20 %
662 20-04-2020 14:12:17 17.3 C 20 %
663 20-04-2020 14:22:17 18.3 C 20 %
664 20-04-2020 14:32:18 21 C 20 %
665 20-04-2020 14:42:18 23 C 20 %
666 20-04-2020 14:52:18 23.2 C 20 %
667 20-04-2020 15:02:17 22.9 C 20 %
668 20-04-2020 15:12:17 21.8 C 20 %
669 20-04-2020 15:22:17 22.9 C 20 %
670 20-04-2020 15:32:17 23.3 C 20 %
671 20-04-2020 15:42:17 24.7 C 20 %
672 20-04-2020 15:52:17 22.5 C 20 %
673 20-04-2020 16:02:17 24.5 C 20 %
674 20-04-2020 16:12:17 22.7 C 20 %
675 20-04-2020 16:22:17 23 C 20 %
Sensor: Nr:Datum:Temp:Feuchte:
Aussen-T/F 676 20-04-2020 16:32:17 23.5 C 20 %
677 20-04-2020 16:42:17 23.6 C 20 %
678 20-04-2020 16:52:17 23.4 C 20 %
679 20-04-2020 17:02:17 23.7 C 20 %
680 20-04-2020 17:12:17 22.3 C 20 %
681 20-04-2020 17:22:17 21.6 C 20 %
682 20-04-2020 17:32:17 20.4 C 20 %
683 20-04-2020 17:42:17 22.4 C 20 %
684 20-04-2020 17:52:17 20.9 C 20 %
685 20-04-2020 18:02:18 19.1 C 20 %
686 20-04-2020 18:12:18 19 C 20 %
687 20-04-2020 18:22:18 18.5 C 20 %
688 20-04-2020 18:32:17 18.4 C 20 %
689 20-04-2020 18:42:18 18.2 C 20 %
690 20-04-2020 18:52:18 18.3 C 20 %
691 20-04-2020 19:02:17 17.8 C 20 %
692 20-04-2020 19:12:17 17.6 C 20 %
693 20-04-2020 19:22:17 17.2 C 20 %
694 20-04-2020 19:32:17 17 C 20 %
695 20-04-2020 19:42:17 16.6 C 20 %
696 20-04-2020 19:52:17 16.3 C 20 %
697 20-04-2020 20:02:17 16 C 20 %
698 20-04-2020 20:12:17 15.6 C 20 %
699 20-04-2020 20:22:17 15 C 20 %
700 20-04-2020 20:32:17 14.4 C 20 %
Sensor: Nr:Datum:Temp:Feuchte:
Aussen-T/F 701 20-04-2020 20:42:17 14.5 C 20 %
702 20-04-2020 20:52:17 13.8 C 20 %
703 20-04-2020 21:02:17 13.7 C 20 %
704 20-04-2020 21:12:17 12.9 C 20 %
705 20-04-2020 21:22:17 12.6 C 20 %
706 20-04-2020 21:32:17 12 C 20 %
707 20-04-2020 21:42:17 12.2 C 20 %
708 20-04-2020 21:52:17 12.6 C 20 %
709 20-04-2020 22:02:17 11.8 C 20 %
710 20-04-2020 22:12:17 11.9 C 20 %
711 20-04-2020 22:22:17 12.1 C 20 %
712 20-04-2020 22:32:17 12.2 C 20 %
713 20-04-2020 22:42:17 11.9 C 20 %
714 20-04-2020 22:52:18 11.5 C 20 %
715 20-04-2020 23:02:17 11.5 C 20 %
716 20-04-2020 23:12:17 11.6 C 20 %
717 20-04-2020 23:22:17 11 C 20 %
718 20-04-2020 23:32:18 11.6 C 20 %
719 20-04-2020 23:42:18 11 C 20 %
720 20-04-2020 23:52:17 11 C 20 %
721 21-04-2020 00:02:17 10.9 C 20 %
722 21-04-2020 00:12:17 10.3 C 20 %
723 21-04-2020 00:22:17 10.4 C 20 %
724 21-04-2020 00:32:17 9.9 C 20 %
725 21-04-2020 00:42:17 10.5 C 20 %
Sensor: Nr:Datum:Temp:Feuchte:
Aussen-T/F 726 21-04-2020 00:52:17 10 C 20 %
727 21-04-2020 01:02:18 9.4 C 20 %
728 21-04-2020 01:12:18 8.9 C 20 %
729 21-04-2020 01:22:18 9 C 20 %
730 21-04-2020 01:32:18 8.9 C 20 %
731 21-04-2020 01:42:18 9.2 C 20 %
732 21-04-2020 01:52:17 8.4 C 20 %
733 21-04-2020 02:02:17 9.2 C 20 %
734 21-04-2020 02:12:18 9.1 C 20 %
735 21-04-2020 02:22:17 9.1 C 20 %
736 21-04-2020 02:32:18 8.9 C 20 %
737 21-04-2020 02:42:18 9.2 C 20 %
738 21-04-2020 02:52:17 9 C 20 %
739 21-04-2020 03:02:17 9.3 C 20 %
740 21-04-2020 03:12:17 9.1 C 20 %
741 21-04-2020 03:22:18 9.2 C 20 %
742 21-04-2020 03:32:17 9.1 C 20 %
743 21-04-2020 03:42:17 8.3 C 20 %
744 21-04-2020 03:52:18 8.6 C 20 %
745 21-04-2020 04:02:18 8.1 C 20 %
746 21-04-2020 04:12:18 7.4 C 23 %
747 21-04-2020 04:22:17 7.8 C 20 %
748 21-04-2020 04:32:17 7.7 C 23 %
749 21-04-2020 04:42:17 7.5 C 25 %
750 21-04-2020 04:52:17 7.5 C 25 %
Sensor: Nr:Datum:Temp:Feuchte:
Aussen-T/F 751 21-04-2020 05:02:17 7.1 C 25 %
752 21-04-2020 05:12:17 7.7 C 25 %
753 21-04-2020 05:22:17 7.3 C 25 %
754 21-04-2020 05:32:18 7 C 25 %
755 21-04-2020 05:42:18 6.8 C 26 %
756 21-04-2020 05:52:17 6.5 C 27 %
757 21-04-2020 06:02:17 6.9 C 27 %
758 21-04-2020 06:12:17 6.6 C 27 %
759 21-04-2020 06:22:18 6.6 C 27 %
760 21-04-2020 06:32:18 6.3 C 28 %
761 21-04-2020 06:42:18 6.4 C 28 %
762 21-04-2020 06:52:17 6.3 C 29 %
763 21-04-2020 07:02:18 6.1 C 30 %
764 21-04-2020 07:12:18 6.2 C 29 %
765 21-04-2020 07:22:17 6.3 C 30 %
766 21-04-2020 07:32:17 6.5 C 30 %
767 21-04-2020 07:42:17 7.3 C 27 %
768 21-04-2020 07:52:17 6.9 C 29 %
769 21-04-2020 08:02:17 7.4 C 27 %
770 21-04-2020 08:12:17 7.7 C 26 %
771 21-04-2020 08:22:17 7.6 C 26 %
772 21-04-2020 08:32:17 7.2 C 28 %
773 21-04-2020 08:42:18 7.5 C 27 %
774 21-04-2020 08:52:17 8.3 C 27 %
775 21-04-2020 09:02:17 8.7 C 25 %
Sensor: Nr:Datum:Temp:Feuchte:
Aussen-T/F 776 21-04-2020 09:12:17 9.2 C 23 %
777 21-04-2020 09:22:17 9.7 C 21 %
778 21-04-2020 09:32:17 10.2 C 20 %
779 21-04-2020 09:42:17 10.7 C 20 %
780 21-04-2020 09:52:17 10.9 C 20 %
781 21-04-2020 10:02:17 10.9 C 20 %
782 21-04-2020 10:12:17 11.7 C 20 %
783 21-04-2020 10:22:17 12.2 C 20 %
784 21-04-2020 10:32:17 12.8 C 20 %
785 21-04-2020 10:42:17 13.2 C 20 %
786 21-04-2020 10:52:17 13.5 C 20 %
787 21-04-2020 11:02:17 13.9 C 20 %
788 21-04-2020 11:12:17 14.6 C 20 %
789 21-04-2020 11:22:17 14.6 C 20 %
790 21-04-2020 11:32:18 14.7 C 20 %
791 21-04-2020 11:42:18 15.2 C 20 %
792 21-04-2020 11:52:18 15.7 C 20 %
793 21-04-2020 12:02:17 16.4 C 20 %
794 21-04-2020 12:12:18 16.1 C 20 %
795 21-04-2020 12:22:17 16.1 C 20 %
796 21-04-2020 12:32:17 16.2 C 20 %
797 21-04-2020 12:42:17 16.4 C 20 %
798 21-04-2020 12:52:17 16.6 C 20 %
799 21-04-2020 13:02:17 16.9 C 20 %
800 21-04-2020 13:12:17 17.4 C 20 %
Sensor: Nr:Datum:Temp:Feuchte:
Aussen-T/F 801 21-04-2020 13:22:17 17.2 C 20 %
802 21-04-2020 13:32:17 17.3 C 20 %
803 21-04-2020 13:42:17 17.9 C 20 %
804 21-04-2020 13:52:17 18.1 C 20 %
805 21-04-2020 14:02:17 18.5 C 20 %
806 21-04-2020 14:12:17 19 C 20 %
807 21-04-2020 14:22:17 19.4 C 20 %
808 21-04-2020 14:32:17 22 C 20 %
809 21-04-2020 14:42:17 24.4 C 20 %
810 21-04-2020 14:52:17 24.2 C 20 %
811 21-04-2020 15:02:17 24.5 C 20 %
812 21-04-2020 15:12:17 22.2 C 20 %
813 21-04-2020 15:22:17 23.7 C 20 %
814 21-04-2020 15:32:18 23.2 C 20 %
815 21-04-2020 15:42:18 24 C 20 %
816 21-04-2020 15:52:17 23.4 C 20 %
817 21-04-2020 16:02:18 22.8 C 20 %
818 21-04-2020 16:12:18 23.2 C 20 %
819 21-04-2020 16:22:17 22.9 C 20 %
820 21-04-2020 16:32:17 23.2 C 20 %
821 21-04-2020 16:42:17 24.3 C 20 %
822 21-04-2020 16:52:17 22.8 C 20 %
823 21-04-2020 17:02:17 23.6 C 20 %
824 21-04-2020 17:12:17 24.8 C 20 %
825 21-04-2020 17:22:18 22.8 C 20 %
Sensor: Nr:Datum:Temp:Feuchte:
Aussen-T/F 826 21-04-2020 17:32:17 21.9 C 20 %
827 21-04-2020 17:42:17 22.3 C 20 %
828 21-04-2020 17:52:17 22.9 C 20 %
829 21-04-2020 18:02:18 21.1 C 20 %
830 21-04-2020 18:12:18 20.9 C 20 %
831 21-04-2020 18:22:17 20.5 C 20 %
832 21-04-2020 18:32:17 20.3 C 20 %
833 21-04-2020 18:42:17 20 C 20 %
834 21-04-2020 18:52:18 20 C 20 %
835 21-04-2020 19:02:17 19.6 C 20 %
836 21-04-2020 19:12:17 19.4 C 20 %
837 21-04-2020 19:22:17 19.1 C 20 %
838 21-04-2020 19:32:18 18.9 C 20 %
839 21-04-2020 19:42:18 18.7 C 20 %
840 21-04-2020 19:52:17 18.3 C 20 %
841 21-04-2020 20:02:17 17.9 C 20 %
842 21-04-2020 20:12:17 17.4 C 20 %
843 21-04-2020 20:22:17 16.7 C 20 %
844 21-04-2020 20:32:17 16.2 C 20 %
845 21-04-2020 20:42:17 15.5 C 20 %
846 21-04-2020 20:52:17 14.8 C 20 %
847 21-04-2020 21:02:18 14.2 C 20 %
848 21-04-2020 21:12:18 14.5 C 20 %
849 21-04-2020 21:22:17 14.1 C 20 %
850 21-04-2020 21:32:17 13.9 C 20 %
Sensor: Nr:Datum:Temp:Feuchte:
Aussen-T/F 851 21-04-2020 21:42:17 13.2 C 20 %
852 21-04-2020 21:52:18 12.9 C 20 %
853 21-04-2020 22:02:17 13.2 C 20 %
854 21-04-2020 22:12:17 13 C 20 %
855 21-04-2020 22:22:17 13.4 C 20 %
856 21-04-2020 22:32:17 12.6 C 20 %
857 21-04-2020 22:42:17 12 C 20 %
858 21-04-2020 22:52:18 11.8 C 20 %
859 21-04-2020 23:02:18 12.1 C 20 %
860 21-04-2020 23:12:18 11.8 C 20 %
861 21-04-2020 23:22:17 11.5 C 20 %
862 21-04-2020 23:32:18 11.3 C 20 %
863 21-04-2020 23:42:18 11.3 C 20 %
864 21-04-2020 23:52:18 11.1 C 20 %
865 22-04-2020 00:02:18 11.1 C 20 %
866 22-04-2020 00:12:18 10.6 C 20 %
867 22-04-2020 00:22:17 11.1 C 20 %
868 22-04-2020 00:32:18 11.4 C 20 %
869 22-04-2020 00:42:18 10.9 C 20 %
870 22-04-2020 00:52:17 11 C 20 %
871 22-04-2020 01:02:17 10.8 C 20 %
872 22-04-2020 01:12:17 10 C 21 %
873 22-04-2020 01:22:17 9.9 C 25 %
874 22-04-2020 01:32:18 9.7 C 25 %
875 22-04-2020 01:42:18 10.2 C 21 %
Sensor: Nr:Datum:Temp:Feuchte:
Aussen-T/F 876 22-04-2020 01:52:17 9.9 C 23 %
877 22-04-2020 02:02:17 9.9 C 23 %
878 22-04-2020 02:12:17 9.8 C 25 %
879 22-04-2020 02:22:17 9.5 C 25 %
880 22-04-2020 02:32:17 9.3 C 25 %
881 22-04-2020 02:42:17 9.7 C 25 %
882 22-04-2020 02:52:17 9.3 C 25 %
883 22-04-2020 03:02:17 9.5 C 25 %
884 22-04-2020 03:12:17 9 C 25 %
885 22-04-2020 03:22:18 8.8 C 26 %
886 22-04-2020 03:32:18 8.5 C 27 %
887 22-04-2020 03:42:18 8.4 C 27 %
888 22-04-2020 03:52:17 8.3 C 27 %
889 22-04-2020 04:02:18 8.4 C 27 %
890 22-04-2020 04:12:18 8.3 C 27 %
891 22-04-2020 04:22:17 8 C 27 %
892 22-04-2020 04:32:18 7.9 C 27 %
893 22-04-2020 04:42:18 7.9 C 27 %
894 22-04-2020 04:52:17 7.4 C 28 %
895 22-04-2020 05:02:18 7.5 C 28 %
896 22-04-2020 05:12:18 7.3 C 28 %
897 22-04-2020 05:22:17 7.1 C 29 %
898 22-04-2020 05:32:17 7.1 C 29 %
899 22-04-2020 05:42:18 6.9 C 30 %
900 22-04-2020 05:52:17 6.7 C 30 %
Sensor: Nr:Datum:Temp:Feuchte:
Aussen-T/F 901 22-04-2020 06:02:18 6.7 C 30 %
902 22-04-2020 06:12:18 6.1 C 31 %
903 22-04-2020 06:22:17 5.8 C 32 %
904 22-04-2020 06:32:17 5.6 C 33 %
905 22-04-2020 06:42:17 5.3 C 35 %
906 22-04-2020 06:52:17 5.6 C 35 %
907 22-04-2020 07:02:17 5.6 C 35 %
908 22-04-2020 07:12:17 5.4 C 35 %
909 22-04-2020 07:22:18 5.9 C 35 %
910 22-04-2020 07:32:17 5.5 C 35 %
911 22-04-2020 07:42:17 5.7 C 35 %
912 22-04-2020 07:52:17 5.9 C 35 %
913 22-04-2020 08:02:17 6.5 C 34 %
914 22-04-2020 08:12:17 6.6 C 34 %
915 22-04-2020 08:22:17 7 C 33 %
916 22-04-2020 08:32:17 7.5 C 32 %
917 22-04-2020 08:42:17 8 C 31 %
918 22-04-2020 08:52:18 8.9 C 30 %
919 22-04-2020 09:02:18 9.1 C 30 %
920 22-04-2020 09:12:18 9.1 C 30 %
921 22-04-2020 09:22:17 10.1 C 26 %
922 22-04-2020 09:32:17 10.7 C 26 %
923 22-04-2020 09:42:17 10.7 C 26 %
924 22-04-2020 09:52:17 11.3 C 24 %
925 22-04-2020 10:02:17 11.5 C 24 %
Sensor: Nr:Datum:Temp:Feuchte:
Aussen-T/F 926 22-04-2020 10:12:17 12.5 C 20 %
927 22-04-2020 10:22:17 13 C 20 %
928 22-04-2020 10:32:17 13.7 C 20 %
929 22-04-2020 10:42:17 14.2 C 20 %
930 22-04-2020 10:52:17 14.8 C 20 %
931 22-04-2020 11:02:17 15.4 C 20 %
932 22-04-2020 11:12:17 15.7 C 20 %
933 22-04-2020 11:22:17 16.2 C 20 %
934 22-04-2020 11:32:17 16.4 C 20 %
935 22-04-2020 11:42:17 17.1 C 20 %
936 22-04-2020 11:52:18 17.1 C 20 %
937 22-04-2020 12:02:18 17.9 C 20 %
938 22-04-2020 12:12:18 17.6 C 20 %
939 22-04-2020 12:22:17 17.7 C 20 %
940 22-04-2020 12:32:17 17.7 C 20 %
941 22-04-2020 12:42:17 17.7 C 20 %
942 22-04-2020 12:52:18 18 C 20 %
943 22-04-2020 13:02:17 18.6 C 20 %
944 22-04-2020 13:12:17 19.3 C 20 %
945 22-04-2020 13:22:17 19 C 20 %
946 22-04-2020 13:32:17 18.9 C 20 %
947 22-04-2020 13:42:17 19.1 C 20 %
948 22-04-2020 13:52:17 19.4 C 20 %
949 22-04-2020 14:02:17 19.8 C 20 %
950 22-04-2020 14:12:17 20.3 C 20 %
Sensor: Nr:Datum:Temp:Feuchte:
Aussen-T/F 951 22-04-2020 14:22:17 21.2 C 20 %
952 22-04-2020 14:32:17 25.4 C 20 %
953 22-04-2020 14:42:17 27.1 C 20 %
954 22-04-2020 14:52:17 25.8 C 20 %
955 22-04-2020 15:02:17 24.9 C 20 %
956 22-04-2020 15:12:18 26.4 C 20 %
957 22-04-2020 15:22:17 27.6 C 20 %
958 22-04-2020 15:32:17 27 C 20 %
959 22-04-2020 15:42:17 25.4 C 20 %
960 22-04-2020 15:52:17 25.7 C 20 %
961 22-04-2020 16:02:17 25.3 C 20 %
962 22-04-2020 16:12:17 27.2 C 20 %
963 22-04-2020 16:22:17 26.8 C 20 %
964 22-04-2020 16:32:18 27.7 C 20 %
965 22-04-2020 16:42:18 25.2 C 20 %
966 22-04-2020 16:52:17 26.3 C 20 %
967 22-04-2020 17:02:17 25.2 C 20 %
968 22-04-2020 17:12:17 24.6 C 20 %
969 22-04-2020 17:22:17 25.1 C 20 %
970 22-04-2020 17:32:17 25.5 C 20 %
971 22-04-2020 17:42:17 25.6 C 20 %
972 22-04-2020 17:52:17 25.2 C 20 %
973 22-04-2020 18:02:17 23.1 C 20 %
974 22-04-2020 18:12:17 22 C 20 %
975 22-04-2020 18:22:17 22.1 C 20 %
Sensor: Nr:Datum:Temp:Feuchte:
Aussen-T/F 976 22-04-2020 18:32:17 21.9 C 20 %
977 22-04-2020 18:42:17 21.9 C 20 %
978 22-04-2020 18:52:17 21.6 C 20 %
979 22-04-2020 19:02:17 21.1 C 20 %
980 22-04-2020 19:12:17 21.2 C 20 %
981 22-04-2020 19:22:17 20.8 C 20 %
982 22-04-2020 19:32:18 20.4 C 20 %
983 22-04-2020 19:42:18 20.3 C 20 %
984 22-04-2020 19:52:17 20 C 20 %
985 22-04-2020 20:02:18 19.4 C 20 %
986 22-04-2020 20:12:18 18.4 C 20 %
987 22-04-2020 20:22:17 17 C 20 %
988 22-04-2020 20:32:17 16.3 C 20 %
989 22-04-2020 20:42:17 16.2 C 20 %
990 22-04-2020 20:52:17 15.9 C 20 %
991 22-04-2020 21:02:17 15.7 C 20 %
992 22-04-2020 21:12:17 15 C 20 %
993 22-04-2020 21:22:17 14.6 C 20 %
994 22-04-2020 21:32:17 14.4 C 20 %
995 22-04-2020 21:42:17 14.4 C 20 %
996 22-04-2020 21:52:17 14.1 C 20 %
997 22-04-2020 22:02:17 13.7 C 20 %
998 22-04-2020 22:12:17 13.8 C 20 %
999 22-04-2020 22:22:17 14.2 C 20 %
1000 22-04-2020 22:32:17 13.6 C 20 %
Sensor: Nr:Datum:Temp:Feuchte:
Aussen-T/F 1001 22-04-2020 22:42:17 13.5 C 20 %
1002 22-04-2020 22:52:18 13.5 C 20 %
1003 22-04-2020 23:02:17 13.7 C 20 %
1004 22-04-2020 23:12:17 13.5 C 20 %
1005 22-04-2020 23:22:17 13.2 C 20 %
1006 22-04-2020 23:32:17 12.9 C 20 %
1007 22-04-2020 23:42:17 13.2 C 20 %
1008 22-04-2020 23:52:18 12.8 C 20 %
Sensor: Nr:Datum:Temp:Feuchte:
G-T/H 1 16-04-2020 00:02:17 10.7 C 49 %
2 16-04-2020 00:12:17 10.5 C 49 %
3 16-04-2020 00:22:17 10.3 C 50 %
4 16-04-2020 00:32:18 10.2 C 50 %
5 16-04-2020 00:42:18 10.1 C 50 %
6 16-04-2020 00:52:17 10 C 50 %
7 16-04-2020 01:02:17 9.9 C 50 %
8 16-04-2020 01:12:17 9.9 C 50 %
9 16-04-2020 01:22:17 9.7 C 50 %
10 16-04-2020 01:32:18 9.7 C 50 %
11 16-04-2020 01:42:18 9.7 C 50 %
12 16-04-2020 01:52:17 9.5 C 51 %
13 16-04-2020 02:02:18 9.5 C 51 %
14 16-04-2020 02:12:18 9.3 C 51 %
15 16-04-2020 02:22:18 9.2 C 51 %
16 16-04-2020 02:32:17 9.1 C 51 %
17 16-04-2020 02:42:17 8.9 C 52 %
18 16-04-2020 02:52:17 8.9 C 52 %
19 16-04-2020 03:02:17 8.7 C 52 %
20 16-04-2020 03:12:17 8.6 C 53 %
21 16-04-2020 03:22:17 8.5 C 53 %
22 16-04-2020 03:32:17 8.5 C 53 %
23 16-04-2020 03:42:17 8.4 C 53 %
24 16-04-2020 03:52:17 8.3 C 53 %
25 16-04-2020 04:02:17 8.2 C 53 %
Sensor: Nr:Datum:Temp:Feuchte:
G-T/H 26 16-04-2020 04:12:17 8.1 C 53 %
27 16-04-2020 04:22:17 8.1 C 54 %
28 16-04-2020 04:32:18 8 C 54 %
29 16-04-2020 04:42:18 7.9 C 55 %
30 16-04-2020 04:52:17 7.9 C 55 %
31 16-04-2020 05:02:17 7.8 C 55 %
32 16-04-2020 05:12:17 7.7 C 55 %
33 16-04-2020 05:22:17 7.7 C 55 %
34 16-04-2020 05:32:17 7.6 C 56 %
35 16-04-2020 05:42:17 7.5 C 55 %
36 16-04-2020 05:52:17 7.3 C 56 %
37 16-04-2020 06:02:18 7.4 C 56 %
38 16-04-2020 06:12:18 7.3 C 56 %
39 16-04-2020 06:22:17 7.2 C 56 %
40 16-04-2020 06:32:17 7.1 C 56 %
41 16-04-2020 06:42:17 7 C 56 %
42 16-04-2020 06:52:17 6.9 C 57 %
43 16-04-2020 07:02:17 6.9 C 57 %
44 16-04-2020 07:12:17 6.9 C 57 %
45 16-04-2020 07:22:17 6.8 C 58 %
46 16-04-2020 07:32:17 6.8 C 58 %
47 16-04-2020 07:42:17 6.9 C 58 %
48 16-04-2020 07:52:17 6.8 C 59 %
49 16-04-2020 08:02:17 6.8 C 59 %
50 16-04-2020 08:12:17 6.8 C 59 %
Sensor: Nr:Datum:Temp:Feuchte:
G-T/H 51 16-04-2020 08:22:17 6.8 C 60 %
52 16-04-2020 08:32:18 7 C 59 %
53 16-04-2020 08:42:18 7 C 59 %
54 16-04-2020 08:52:17 7 C 60 %
55 16-04-2020 09:02:18 7.1 C 60 %
56 16-04-2020 09:12:18 7.2 C 60 %
57 16-04-2020 09:22:17 7.3 C 60 %
58 16-04-2020 09:32:17 7.4 C 61 %
59 16-04-2020 09:42:17 7.6 C 61 %
60 16-04-2020 09:52:17 7.8 C 61 %
61 16-04-2020 10:02:18 7.9 C 62 %
62 16-04-2020 10:12:18 8.1 C 61 %
63 16-04-2020 10:22:17 8.4 C 61 %
64 16-04-2020 10:32:17 8.5 C 62 %
65 16-04-2020 10:42:18 8.7 C 61 %
66 16-04-2020 10:52:17 9 C 60 %
67 16-04-2020 11:02:18 9.2 C 60 %
68 16-04-2020 11:12:18 9.5 C 60 %
69 16-04-2020 11:22:17 10 C 59 %
70 16-04-2020 11:32:17 10.4 C 58 %
71 16-04-2020 11:42:17 10.7 C 57 %
72 16-04-2020 11:52:17 11.1 C 56 %
73 16-04-2020 12:02:18 11.4 C 55 %
74 16-04-2020 12:12:18 11.7 C 55 %
75 16-04-2020 12:22:17 12 C 53 %
Sensor: Nr:Datum:Temp:Feuchte:
G-T/H 76 16-04-2020 12:32:18 12.2 C 53 %
77 16-04-2020 12:42:18 12.4 C 53 %
78 16-04-2020 12:52:17 12.6 C 53 %
79 16-04-2020 13:02:18 12.9 C 53 %
80 16-04-2020 13:12:18 13.2 C 51 %
81 16-04-2020 13:22:17 13.4 C 51 %
82 16-04-2020 13:32:18 13.6 C 50 %
83 16-04-2020 13:42:18 13.9 C 48 %
84 16-04-2020 13:52:17 14.1 C 47 %
85 16-04-2020 14:02:17 14.2 C 45 %
86 16-04-2020 14:12:17 14.4 C 45 %
87 16-04-2020 14:22:17 14.6 C 45 %
88 16-04-2020 14:32:17 14.6 C 44 %
89 16-04-2020 14:42:17 14.8 C 45 %
90 16-04-2020 14:52:17 15.1 C 44 %
91 16-04-2020 15:02:17 15.3 C 44 %
92 16-04-2020 15:12:17 15.4 C 44 %
93 16-04-2020 15:22:17 15.5 C 44 %
94 16-04-2020 15:32:18 15.8 C 43 %
95 16-04-2020 15:42:18 15.9 C 44 %
96 16-04-2020 15:52:17 16 C 43 %
97 16-04-2020 16:02:17 16.2 C 44 %
98 16-04-2020 16:12:17 16.4 C 44 %
99 16-04-2020 16:22:17 16.5 C 44 %
100 16-04-2020 16:32:17 16.5 C 42 %
Sensor: Nr:Datum:Temp:Feuchte:
G-T/H 101 16-04-2020 16:42:18 16.6 C 41 %
102 16-04-2020 16:52:17 16.7 C 41 %
103 16-04-2020 17:02:17 16.7 C 41 %
104 16-04-2020 17:12:17 16.8 C 42 %
105 16-04-2020 17:22:18 16.3 C 42 %
106 16-04-2020 17:32:17 15.8 C 43 %
107 16-04-2020 17:42:17 15.5 C 45 %
108 16-04-2020 17:52:17 15.3 C 45 %
109 16-04-2020 18:02:17 15.1 C 46 %
110 16-04-2020 18:12:17 15 C 46 %
111 16-04-2020 18:22:17 14.9 C 47 %
112 16-04-2020 18:32:17 14.8 C 48 %
113 16-04-2020 18:42:17 14.8 C 48 %
114 16-04-2020 18:52:17 14.7 C 49 %
115 16-04-2020 19:02:17 14.6 C 49 %
116 16-04-2020 19:12:17 14.6 C 49 %
117 16-04-2020 19:22:17 14.5 C 50 %
118 16-04-2020 19:32:18 14.5 C 50 %
119 16-04-2020 19:42:18 14.5 C 51 %
120 16-04-2020 19:52:17 14.4 C 51 %
121 16-04-2020 20:02:17 14.4 C 51 %
122 16-04-2020 20:12:17 14.3 C 52 %
123 16-04-2020 20:22:17 14.3 C 52 %
124 16-04-2020 20:32:18 14.3 C 52 %
125 16-04-2020 20:42:18 14.3 C 52 %
Sensor: Nr:Datum:Temp:Feuchte:
G-T/H 126 16-04-2020 20:52:18 14.2 C 53 %
127 16-04-2020 21:02:17 14.2 C 53 %
128 16-04-2020 21:12:17 14.2 C 53 %
129 16-04-2020 21:22:17 14.1 C 53 %
130 16-04-2020 21:32:18 14.1 C 53 %
131 16-04-2020 21:42:18 14.1 C 53 %
132 16-04-2020 21:52:17 14.1 C 54 %
133 16-04-2020 22:02:17 14.1 C 54 %
134 16-04-2020 22:12:17 14 C 54 %
135 16-04-2020 22:22:17 14 C 54 %
136 16-04-2020 22:32:17 14 C 54 %
137 16-04-2020 22:42:18 14 C 54 %
138 16-04-2020 22:52:17 13.9 C 55 %
139 16-04-2020 23:02:17 13.9 C 55 %
140 16-04-2020 23:12:17 13.9 C 55 %
141 16-04-2020 23:22:17 13.9 C 55 %
142 16-04-2020 23:32:18 13.9 C 56 %
143 16-04-2020 23:42:18 13.9 C 56 %
144 16-04-2020 23:52:17 13.8 C 56 %
145 17-04-2020 00:02:18 13.8 C 56 %
146 17-04-2020 00:12:18 13.8 C 56 %
147 17-04-2020 00:22:17 13.8 C 56 %
148 17-04-2020 00:32:17 13.8 C 56 %
149 17-04-2020 00:42:17 13.8 C 56 %
150 17-04-2020 00:52:18 13.7 C 56 %
Sensor: Nr:Datum:Temp:Feuchte:
G-T/H 151 17-04-2020 01:02:17 13.7 C 56 %
152 17-04-2020 01:12:18 13.7 C 56 %
153 17-04-2020 01:22:18 13.7 C 56 %
154 17-04-2020 01:32:18 13.7 C 57 %
155 17-04-2020 01:42:18 13.6 C 57 %
156 17-04-2020 01:52:17 13.6 C 57 %
157 17-04-2020 02:02:17 13.6 C 57 %
158 17-04-2020 02:12:17 13.6 C 57 %
159 17-04-2020 02:22:17 13.6 C 57 %
160 17-04-2020 02:32:17 13.6 C 57 %
161 17-04-2020 02:42:17 13.6 C 57 %
162 17-04-2020 02:52:17 13.6 C 57 %
163 17-04-2020 03:02:17 13.5 C 57 %
164 17-04-2020 03:12:18 13.5 C 57 %
165 17-04-2020 03:22:18 13.5 C 57 %
166 17-04-2020 03:32:17 13.5 C 57 %
167 17-04-2020 03:42:18 13.4 C 57 %
168 17-04-2020 03:52:18 13.4 C 57 %
169 17-04-2020 04:02:17 13.4 C 57 %
170 17-04-2020 04:12:17 13.4 C 57 %
171 17-04-2020 04:22:17 13.4 C 57 %
172 17-04-2020 04:32:17 13.4 C 57 %
173 17-04-2020 04:42:17 13.4 C 57 %
174 17-04-2020 04:52:17 13.4 C 57 %
175 17-04-2020 05:02:17 13.3 C 57 %
Sensor: Nr:Datum:Temp:Feuchte:
G-T/H 176 17-04-2020 05:12:18 13.3 C 57 %
177 17-04-2020 05:22:17 13.3 C 57 %
178 17-04-2020 05:32:18 13.3 C 57 %
179 17-04-2020 05:42:18 13.3 C 57 %
180 17-04-2020 05:52:18 13.2 C 57 %
181 17-04-2020 06:02:18 13.2 C 57 %
182 17-04-2020 06:12:18 13.2 C 57 %
183 17-04-2020 06:22:17 13.2 C 57 %
184 17-04-2020 06:32:17 13.2 C 57 %
185 17-04-2020 06:42:17 13.2 C 57 %
186 17-04-2020 06:52:17 13.1 C 57 %
187 17-04-2020 07:02:18 13.1 C 57 %
188 17-04-2020 07:12:18 13.1 C 57 %
189 17-04-2020 07:22:18 13.1 C 57 %
190 17-04-2020 07:32:17 13.1 C 57 %
191 17-04-2020 07:42:17 13.1 C 58 %
192 17-04-2020 07:52:17 13 C 58 %
193 17-04-2020 08:02:17 13.1 C 58 %
194 17-04-2020 08:12:17 13 C 58 %
195 17-04-2020 08:22:17 13 C 58 %
196 17-04-2020 08:32:18 13 C 58 %
197 17-04-2020 08:42:18 13 C 58 %
198 17-04-2020 08:52:17 13 C 58 %
199 17-04-2020 09:02:18 13 C 58 %
200 17-04-2020 09:12:18 13 C 58 %
Sensor: Nr:Datum:Temp:Feuchte:
G-T/H 201 17-04-2020 09:22:17 12.9 C 59 %
202 17-04-2020 09:32:17 12.9 C 59 %
203 17-04-2020 09:42:17 12.9 C 59 %
204 17-04-2020 09:52:18 12.9 C 60 %
205 17-04-2020 10:02:17 12.9 C 60 %
206 17-04-2020 10:12:17 12.9 C 60 %
207 17-04-2020 10:22:18 12.8 C 60 %
208 17-04-2020 10:32:18 12.8 C 60 %
209 17-04-2020 10:42:18 12.9 C 60 %
210 17-04-2020 10:52:17 12.8 C 60 %
211 17-04-2020 11:02:17 12.8 C 60 %
212 17-04-2020 11:12:17 12.8 C 60 %
213 17-04-2020 11:22:18 12.8 C 60 %
214 17-04-2020 11:32:17 12.8 C 60 %
215 17-04-2020 11:42:17 12.9 C 61 %
216 17-04-2020 11:52:17 12.8 C 61 %
217 17-04-2020 12:02:18 12.9 C 61 %
218 17-04-2020 12:12:18 12.8 C 61 %
219 17-04-2020 12:22:17 12.9 C 61 %
220 17-04-2020 12:32:17 12.9 C 61 %
221 17-04-2020 12:42:17 12.9 C 61 %
222 17-04-2020 12:52:17 12.9 C 61 %
223 17-04-2020 13:02:18 12.9 C 61 %
224 17-04-2020 13:12:18 12.9 C 61 %
225 17-04-2020 13:22:17 12.9 C 61 %
Sensor: Nr:Datum:Temp:Feuchte:
G-T/H 226 17-04-2020 13:32:17 13 C 61 %
227 17-04-2020 13:42:17 13 C 61 %
228 17-04-2020 13:52:17 14.2 C 60 %
229 17-04-2020 14:02:18 14.8 C 59 %
230 17-04-2020 14:12:18 15.3 C 57 %
231 17-04-2020 14:22:17 15.6 C 56 %
232 17-04-2020 14:32:17 15.8 C 55 %
233 17-04-2020 14:42:17 15.9 C 55 %
234 17-04-2020 14:52:17 16.1 C 54 %
235 17-04-2020 15:02:17 16.5 C 54 %
236 17-04-2020 15:12:17 16.6 C 53 %
237 17-04-2020 15:22:17 16.7 C 52 %
238 17-04-2020 15:32:17 16.8 C 52 %
239 17-04-2020 15:42:17 16.9 C 52 %
240 17-04-2020 15:52:18 17 C 51 %
241 17-04-2020 16:02:17 17.2 C 51 %
242 17-04-2020 16:12:17 17.2 C 50 %
243 17-04-2020 16:22:17 17.3 C 50 %
244 17-04-2020 16:32:17 17.3 C 50 %
245 17-04-2020 16:42:17 17.5 C 49 %
246 17-04-2020 16:52:17 17.5 C 49 %
247 17-04-2020 17:02:18 17.5 C 49 %
248 17-04-2020 17:12:18 17.6 C 48 %
249 17-04-2020 17:22:17 17.8 C 48 %
250 17-04-2020 17:32:17 18 C 47 %
Sensor: Nr:Datum:Temp:Feuchte:
G-T/H 251 17-04-2020 17:42:18 18.1 C 47 %
252 17-04-2020 17:52:17 18.2 C 46 %
253 17-04-2020 18:02:17 18.3 C 46 %
254 17-04-2020 18:12:17 18.5 C 46 %
255 17-04-2020 18:22:17 18.5 C 46 %
256 17-04-2020 18:32:17 18.7 C 46 %
257 17-04-2020 18:42:17 18.7 C 47 %
258 17-04-2020 18:52:18 18.7 C 47 %
259 17-04-2020 19:02:17 18.7 C 47 %
260 17-04-2020 19:12:17 18.8 C 47 %
261 17-04-2020 19:22:17 18.8 C 48 %
262 17-04-2020 19:32:17 18.7 C 50 %
263 17-04-2020 19:42:17 18.7 C 51 %
264 17-04-2020 19:52:17 18.5 C 51 %
265 17-04-2020 20:02:17 18.2 C 51 %
266 17-04-2020 20:12:17 18.1 C 52 %
267 17-04-2020 20:22:17 17.9 C 53 %
268 17-04-2020 20:32:17 17.7 C 53 %
269 17-04-2020 20:42:17 17.5 C 53 %
270 17-04-2020 20:52:17 17.5 C 53 %
271 17-04-2020 21:02:17 17.4 C 53 %
272 17-04-2020 21:12:17 17.2 C 53 %
273 17-04-2020 21:22:17 17.2 C 53 %
274 17-04-2020 21:32:18 17.2 C 53 %
275 17-04-2020 21:42:18 17.2 C 53 %
Sensor: Nr:Datum:Temp:Feuchte:
G-T/H 276 17-04-2020 21:52:18 17 C 53 %
277 17-04-2020 22:02:17 16.9 C 54 %
278 17-04-2020 22:12:17 16.9 C 54 %
279 17-04-2020 22:22:17 16.7 C 54 %
280 17-04-2020 22:32:17 16.6 C 54 %
281 17-04-2020 22:42:17 16.5 C 54 %
282 17-04-2020 22:52:17 16.4 C 54 %
283 17-04-2020 23:02:17 16.4 C 55 %
284 17-04-2020 23:12:17 16.3 C 55 %
285 17-04-2020 23:22:18 16.2 C 55 %
286 17-04-2020 23:32:17 16.1 C 55 %
287 17-04-2020 23:42:17 16 C 55 %
288 17-04-2020 23:52:17 15.9 C 56 %
289 18-04-2020 00:02:17 15.8 C 56 %
290 18-04-2020 00:12:17 15.7 C 56 %
291 18-04-2020 00:22:18 15.5 C 56 %
292 18-04-2020 00:32:17 15.4 C 56 %
293 18-04-2020 00:42:18 15.3 C 56 %
294 18-04-2020 00:52:17 15.2 C 56 %
295 18-04-2020 01:02:18 15.2 C 56 %
296 18-04-2020 01:12:18 15 C 55 %
297 18-04-2020 01:22:17 14.9 C 56 %
298 18-04-2020 01:32:18 14.8 C 56 %
299 18-04-2020 01:42:18 14.7 C 56 %
300 18-04-2020 01:52:17 14.6 C 56 %
Sensor: Nr:Datum:Temp:Feuchte:
G-T/H 301 18-04-2020 02:02:18 14.5 C 56 %
302 18-04-2020 02:12:18 14.4 C 56 %
303 18-04-2020 02:22:17 14.4 C 56 %
304 18-04-2020 02:32:17 14.2 C 57 %
305 18-04-2020 02:42:17 14.1 C 57 %
306 18-04-2020 02:52:18 14.1 C 57 %
307 18-04-2020 03:02:17 13.9 C 58 %
308 18-04-2020 03:12:17 13.8 C 58 %
309 18-04-2020 03:22:18 13.7 C 59 %
310 18-04-2020 03:32:18 13.6 C 58 %
311 18-04-2020 03:42:18 13.5 C 58 %
312 18-04-2020 03:52:18 13.4 C 58 %
313 18-04-2020 04:02:17 13.3 C 58 %
314 18-04-2020 04:12:17 13.2 C 59 %
315 18-04-2020 04:22:17 13.1 C 59 %
316 18-04-2020 04:32:18 13.1 C 59 %
317 18-04-2020 04:42:18 13 C 59 %
318 18-04-2020 04:52:17 12.9 C 60 %
319 18-04-2020 05:02:17 12.8 C 60 %
320 18-04-2020 05:12:17 12.8 C 60 %
321 18-04-2020 05:22:17 12.8 C 60 %
322 18-04-2020 05:32:17 12.7 C 61 %
323 18-04-2020 05:42:17 12.6 C 61 %
324 18-04-2020 05:52:18 12.5 C 61 %
325 18-04-2020 06:02:17 12.5 C 61 %
Sensor: Nr:Datum:Temp:Feuchte:
G-T/H 326 18-04-2020 06:12:17 12.5 C 61 %
327 18-04-2020 06:22:17 12.4 C 61 %
328 18-04-2020 06:32:17 12.4 C 62 %
329 18-04-2020 06:42:17 12.3 C 62 %
330 18-04-2020 06:52:17 12.2 C 61 %
331 18-04-2020 07:02:17 12.2 C 62 %
332 18-04-2020 07:12:17 12.2 C 62 %
333 18-04-2020 07:22:17 12.3 C 63 %
334 18-04-2020 07:32:17 12.3 C 63 %
335 18-04-2020 07:42:17 12.4 C 63 %
336 18-04-2020 07:52:17 12.4 C 64 %
337 18-04-2020 08:02:18 12.4 C 64 %
338 18-04-2020 08:12:18 12.4 C 64 %
339 18-04-2020 08:22:17 12.4 C 65 %
340 18-04-2020 08:32:17 12.4 C 65 %
341 18-04-2020 08:42:18 12.4 C 65 %
342 18-04-2020 08:52:18 12.5 C 65 %
343 18-04-2020 09:02:17 12.7 C 66 %
344 18-04-2020 09:12:17 12.7 C 66 %
345 18-04-2020 09:22:17 12.8 C 66 %
346 18-04-2020 09:32:18 13 C 65 %
347 18-04-2020 09:42:18 13.1 C 65 %
348 18-04-2020 09:52:18 13.2 C 65 %
349 18-04-2020 10:02:18 13.3 C 65 %
350 18-04-2020 10:12:18 13.4 C 65 %
Sensor: Nr:Datum:Temp:Feuchte:
G-T/H 351 18-04-2020 10:22:18 13.5 C 65 %
352 18-04-2020 10:32:18 13.6 C 65 %
353 18-04-2020 10:42:18 13.8 C 65 %
354 18-04-2020 10:52:18 13.8 C 65 %
355 18-04-2020 11:02:18 13.9 C 65 %
356 18-04-2020 11:12:18 14.1 C 65 %
357 18-04-2020 11:22:17 14.1 C 65 %
358 18-04-2020 11:32:18 14.2 C 65 %
359 18-04-2020 11:42:18 14.3 C 64 %
360 18-04-2020 11:52:18 14.4 C 65 %
361 18-04-2020 12:02:17 14.6 C 65 %
362 18-04-2020 12:12:17 14.7 C 65 %
363 18-04-2020 12:22:18 14.8 C 65 %
364 18-04-2020 12:32:18 14.8 C 65 %
365 18-04-2020 12:42:18 14.9 C 64 %
366 18-04-2020 12:52:17 15 C 63 %
367 18-04-2020 13:02:17 15.2 C 64 %
368 18-04-2020 13:12:17 15.3 C 64 %
369 18-04-2020 13:22:18 15.3 C 63 %
370 18-04-2020 13:32:18 15.5 C 63 %
371 18-04-2020 13:42:18 15.6 C 62 %
372 18-04-2020 13:52:18 15.7 C 62 %
373 18-04-2020 14:02:18 15.9 C 62 %
374 18-04-2020 14:12:18 15.9 C 62 %
375 18-04-2020 14:22:18 16 C 61 %
Sensor: Nr:Datum:Temp:Feuchte:
G-T/H 376 18-04-2020 14:32:17 16.1 C 61 %
377 18-04-2020 14:42:17 16.1 C 61 %
378 18-04-2020 14:52:17 16.2 C 62 %
379 18-04-2020 15:02:17 16.3 C 61 %
380 18-04-2020 15:12:18 16.4 C 61 %
381 18-04-2020 15:22:17 16.5 C 60 %
382 18-04-2020 15:32:17 16.6 C 60 %
383 18-04-2020 15:42:17 16.6 C 59 %
384 18-04-2020 15:52:17 16.6 C 59 %
385 18-04-2020 16:02:18 16.6 C 60 %
386 18-04-2020 16:12:18 16.6 C 61 %
387 18-04-2020 16:22:18 16.6 C 61 %
388 18-04-2020 16:32:17 16.5 C 62 %
389 18-04-2020 16:42:17 16.4 C 62 %
390 18-04-2020 16:52:17 16.4 C 63 %
391 18-04-2020 17:02:17 16.5 C 64 %
392 18-04-2020 17:12:17 16.4 C 64 %
393 18-04-2020 17:22:17 16.4 C 65 %
394 18-04-2020 17:32:18 16.4 C 66 %
395 18-04-2020 17:42:18 16.4 C 67 %
396 18-04-2020 17:52:18 16.3 C 67 %
397 18-04-2020 18:02:18 16.2 C 67 %
398 18-04-2020 18:12:18 16 C 67 %
399 18-04-2020 18:22:17 16 C 67 %
400 18-04-2020 18:32:18 16 C 67 %
Sensor: Nr:Datum:Temp:Feuchte:
G-T/H 401 18-04-2020 18:42:18 15.9 C 68 %
402 18-04-2020 18:52:17 15.9 C 67 %
403 18-04-2020 19:02:18 15.9 C 67 %
404 18-04-2020 19:12:18 15.9 C 67 %
405 18-04-2020 19:22:17 15.8 C 67 %
406 18-04-2020 19:32:17 15.8 C 67 %
407 18-04-2020 19:42:17 15.8 C 67 %
408 18-04-2020 19:52:18 15.8 C 66 %
409 18-04-2020 20:02:17 15.7 C 66 %
410 18-04-2020 20:12:17 15.7 C 66 %
411 18-04-2020 20:22:17 15.7 C 66 %
412 18-04-2020 20:32:17 15.6 C 66 %
413 18-04-2020 20:42:17 15.6 C 65 %
414 18-04-2020 20:52:17 15.6 C 65 %
415 18-04-2020 21:02:18 15.6 C 65 %
416 18-04-2020 21:12:18 15.6 C 65 %
417 18-04-2020 21:22:17 15.5 C 65 %
418 18-04-2020 21:32:17 15.5 C 65 %
419 18-04-2020 21:42:17 15.5 C 65 %
420 18-04-2020 21:52:18 15.5 C 65 %
421 18-04-2020 22:02:17 15.4 C 65 %
422 18-04-2020 22:12:17 15.4 C 65 %
423 18-04-2020 22:22:17 15.4 C 65 %
424 18-04-2020 22:32:18 15.4 C 65 %
425 18-04-2020 22:42:18 15.4 C 65 %
Sensor: Nr:Datum:Temp:Feuchte:
G-T/H 426 18-04-2020 22:52:17 15.3 C 65 %
427 18-04-2020 23:02:18 15.4 C 65 %
428 18-04-2020 23:12:18 15.3 C 65 %
429 18-04-2020 23:22:17 15.3 C 65 %
430 18-04-2020 23:32:17 15.3 C 65 %
431 18-04-2020 23:42:17 15.2 C 65 %
432 18-04-2020 23:52:17 15.2 C 65 %
433 19-04-2020 00:02:18 15.2 C 65 %
434 19-04-2020 00:12:18 15.2 C 65 %
435 19-04-2020 00:22:17 15.2 C 65 %
436 19-04-2020 00:32:17 15.1 C 65 %
437 19-04-2020 00:42:17 15.1 C 64 %
438 19-04-2020 00:52:17 15.1 C 64 %
439 19-04-2020 01:02:17 15.1 C 64 %
440 19-04-2020 01:12:17 15 C 64 %
441 19-04-2020 01:22:17 15 C 64 %
442 19-04-2020 01:32:17 15 C 64 %
443 19-04-2020 01:42:17 15 C 64 %
444 19-04-2020 01:52:17 15 C 64 %
445 19-04-2020 02:02:17 15 C 64 %
446 19-04-2020 02:12:18 15 C 64 %
447 19-04-2020 02:22:17 14.9 C 65 %
448 19-04-2020 02:32:17 15 C 64 %
449 19-04-2020 02:42:17 14.9 C 65 %
450 19-04-2020 02:52:17 14.9 C 65 %
Sensor: Nr:Datum:Temp:Feuchte:
G-T/H 451 19-04-2020 03:02:17 14.9 C 65 %
452 19-04-2020 03:12:17 14.8 C 65 %
453 19-04-2020 03:22:17 14.8 C 65 %
454 19-04-2020 03:32:17 14.8 C 65 %
455 19-04-2020 03:42:17 14.8 C 65 %
456 19-04-2020 03:52:17 14.8 C 65 %
457 19-04-2020 04:02:17 14.7 C 65 %
458 19-04-2020 04:12:17 14.7 C 65 %
459 19-04-2020 04:22:17 14.7 C 65 %
460 19-04-2020 04:32:17 14.7 C 65 %
461 19-04-2020 04:42:17 14.7 C 65 %
462 19-04-2020 04:52:17 14.7 C 65 %
463 19-04-2020 05:02:17 14.7 C 65 %
464 19-04-2020 05:12:17 14.6 C 65 %
465 19-04-2020 05:22:18 14.6 C 65 %
466 19-04-2020 05:32:17 14.6 C 65 %
467 19-04-2020 05:42:17 14.6 C 65 %
468 19-04-2020 05:52:17 14.6 C 65 %
469 19-04-2020 06:02:17 14.5 C 65 %
470 19-04-2020 06:12:17 14.5 C 65 %
471 19-04-2020 06:22:17 14.5 C 65 %
472 19-04-2020 06:32:17 14.5 C 65 %
473 19-04-2020 06:42:17 14.5 C 65 %
474 19-04-2020 06:52:18 14.5 C 65 %
475 19-04-2020 07:02:18 14.5 C 65 %
Sensor: Nr:Datum:Temp:Feuchte:
G-T/H 476 19-04-2020 07:12:18 14.4 C 65 %
477 19-04-2020 07:22:17 14.4 C 65 %
478 19-04-2020 07:32:18 14.4 C 65 %
479 19-04-2020 07:42:18 14.4 C 65 %
480 19-04-2020 07:52:17 14.4 C 65 %
481 19-04-2020 08:02:17 14.4 C 65 %
482 19-04-2020 08:12:17 14.4 C 65 %
483 19-04-2020 08:22:17 14.3 C 65 %
484 19-04-2020 08:32:17 14.3 C 65 %
485 19-04-2020 08:42:17 14.3 C 65 %
486 19-04-2020 08:52:17 14.4 C 65 %
487 19-04-2020 09:02:17 14.3 C 65 %
488 19-04-2020 09:12:18 14.3 C 65 %
489 19-04-2020 09:22:18 14.3 C 65 %
490 19-04-2020 09:32:17 14.3 C 65 %
491 19-04-2020 09:42:17 14.3 C 65 %
492 19-04-2020 09:52:17 14.3 C 65 %
493 19-04-2020 10:02:17 14.3 C 65 %
494 19-04-2020 10:12:17 14.3 C 65 %
495 19-04-2020 10:22:17 14.3 C 65 %
496 19-04-2020 10:32:17 14.3 C 65 %
497 19-04-2020 10:42:17 14.3 C 65 %
498 19-04-2020 10:52:17 14.3 C 65 %
499 19-04-2020 11:02:17 14.3 C 65 %
500 19-04-2020 11:12:17 14.2 C 65 %
Sensor: Nr:Datum:Temp:Feuchte:
G-T/H 501 19-04-2020 11:22:17 14.2 C 65 %
502 19-04-2020 11:32:17 14.2 C 65 %
503 19-04-2020 11:42:17 14.2 C 65 %
504 19-04-2020 11:52:17 14.2 C 65 %
505 19-04-2020 12:02:17 14.2 C 65 %
506 19-04-2020 12:12:17 14.2 C 65 %
507 19-04-2020 12:22:17 14.2 C 65 %
508 19-04-2020 12:32:18 14.2 C 65 %
509 19-04-2020 12:42:18 14.2 C 65 %
510 19-04-2020 12:52:17 14.2 C 65 %
511 19-04-2020 13:02:17 14.2 C 65 %
512 19-04-2020 13:12:17 14.2 C 65 %
513 19-04-2020 13:22:17 14.2 C 65 %
514 19-04-2020 13:32:17 14.2 C 65 %
515 19-04-2020 13:42:17 14.2 C 65 %
516 19-04-2020 13:52:17 14.2 C 66 %
517 19-04-2020 14:02:18 14.2 C 66 %
518 19-04-2020 14:12:18 14.3 C 66 %
519 19-04-2020 14:22:17 14.3 C 66 %
520 19-04-2020 14:32:17 14.3 C 66 %
521 19-04-2020 14:42:17 14.3 C 66 %
522 19-04-2020 14:52:17 14.3 C 66 %
523 19-04-2020 15:02:18 14.3 C 66 %
524 19-04-2020 15:12:18 14.3 C 66 %
525 19-04-2020 15:22:17 14.3 C 66 %
Sensor: Nr:Datum:Temp:Feuchte:
G-T/H 526 19-04-2020 15:32:17 14.3 C 66 %
527 19-04-2020 15:42:18 14.3 C 66 %
528 19-04-2020 15:52:18 14.3 C 66 %
529 19-04-2020 16:02:17 14.3 C 66 %
530 19-04-2020 16:12:17 14.3 C 66 %
531 19-04-2020 16:22:17 14.3 C 66 %
532 19-04-2020 16:32:17 14.3 C 66 %
533 19-04-2020 16:42:17 14.3 C 66 %
534 19-04-2020 16:52:17 14.3 C 66 %
535 19-04-2020 17:02:17 14.4 C 65 %
536 19-04-2020 17:12:17 14.4 C 65 %
537 19-04-2020 17:22:17 14.4 C 65 %
538 19-04-2020 17:32:18 14.4 C 65 %
539 19-04-2020 17:42:18 14.4 C 65 %
540 19-04-2020 17:52:17 14.4 C 65 %
541 19-04-2020 18:02:18 14.4 C 65 %
542 19-04-2020 18:12:18 14.4 C 65 %
543 19-04-2020 18:22:17 14.4 C 65 %
544 19-04-2020 18:32:17 14.4 C 65 %
545 19-04-2020 18:42:17 14.4 C 65 %
546 19-04-2020 18:52:17 14.4 C 65 %
547 19-04-2020 19:02:17 14.4 C 65 %
548 19-04-2020 19:12:17 14.4 C 65 %
549 19-04-2020 19:22:17 14.4 C 65 %
550 19-04-2020 19:32:18 14.4 C 65 %
Sensor: Nr:Datum:Temp:Feuchte:
G-T/H 551 19-04-2020 19:42:18 14.4 C 65 %
552 19-04-2020 19:52:17 14.4 C 65 %
553 19-04-2020 20:02:18 14.4 C 65 %
554 19-04-2020 20:12:18 14.4 C 65 %
555 19-04-2020 20:22:17 14.4 C 65 %
556 19-04-2020 20:32:17 14.4 C 65 %
557 19-04-2020 20:42:17 14.4 C 65 %
558 19-04-2020 20:52:17 14.3 C 65 %
559 19-04-2020 21:02:18 14.4 C 65 %
560 19-04-2020 21:12:18 14.4 C 65 %
561 19-04-2020 21:22:17 14.4 C 65 %
562 19-04-2020 21:32:17 14.4 C 65 %
563 19-04-2020 21:42:17 14.4 C 65 %
564 19-04-2020 21:52:17 14.3 C 64 %
565 19-04-2020 22:02:17 14.3 C 64 %
566 19-04-2020 22:12:17 14.3 C 63 %
567 19-04-2020 22:22:17 14.2 C 62 %
568 19-04-2020 22:32:17 14.2 C 61 %
569 19-04-2020 22:42:17 14.2 C 60 %
570 19-04-2020 22:52:17 14.2 C 59 %
571 19-04-2020 23:02:18 14.2 C 59 %
572 19-04-2020 23:12:18 14.2 C 58 %
573 19-04-2020 23:22:18 14.2 C 58 %
574 19-04-2020 23:32:17 14.2 C 58 %
575 19-04-2020 23:42:17 14.2 C 58 %
Sensor: Nr:Datum:Temp:Feuchte:
G-T/H 576 19-04-2020 23:52:17 14.1 C 59 %
577 20-04-2020 00:02:17 14.1 C 59 %
578 20-04-2020 00:12:17 14.1 C 59 %
579 20-04-2020 00:22:17 14.2 C 59 %
580 20-04-2020 00:32:18 14.1 C 59 %
581 20-04-2020 00:42:18 14.1 C 59 %
582 20-04-2020 00:52:18 14.1 C 59 %
583 20-04-2020 01:02:17 14.1 C 59 %
584 20-04-2020 01:12:17 14.1 C 59 %
585 20-04-2020 01:22:17 14.1 C 59 %
586 20-04-2020 01:32:17 14.1 C 59 %
587 20-04-2020 01:42:17 14.1 C 59 %
588 20-04-2020 01:52:17 14 C 59 %
589 20-04-2020 02:02:18 14 C 59 %
590 20-04-2020 02:12:18 14 C 59 %
591 20-04-2020 02:22:17 14 C 59 %
592 20-04-2020 02:32:18 14 C 59 %
593 20-04-2020 02:42:18 14 C 58 %
594 20-04-2020 02:52:17 14 C 58 %
595 20-04-2020 03:02:17 13.9 C 59 %
596 20-04-2020 03:12:17 13.9 C 59 %
597 20-04-2020 03:22:17 13.9 C 59 %
598 20-04-2020 03:32:17 13.9 C 59 %
599 20-04-2020 03:42:17 13.9 C 59 %
600 20-04-2020 03:52:17 13.9 C 59 %
Sensor: Nr:Datum:Temp:Feuchte:
G-T/H 601 20-04-2020 04:02:17 13.8 C 58 %
602 20-04-2020 04:12:17 13.8 C 58 %
603 20-04-2020 04:22:17 13.8 C 58 %
604 20-04-2020 04:32:18 13.8 C 58 %
605 20-04-2020 04:42:18 13.8 C 58 %
606 20-04-2020 04:52:17 13.8 C 58 %
607 20-04-2020 05:02:18 13.8 C 58 %
608 20-04-2020 05:12:18 13.7 C 59 %
609 20-04-2020 05:22:17 13.7 C 59 %
610 20-04-2020 05:32:17 13.7 C 59 %
611 20-04-2020 05:42:18 13.7 C 59 %
612 20-04-2020 05:52:17 13.7 C 59 %
613 20-04-2020 06:02:18 13.6 C 59 %
614 20-04-2020 06:12:18 13.6 C 59 %
615 20-04-2020 06:22:17 13.6 C 59 %
616 20-04-2020 06:32:17 13.6 C 59 %
617 20-04-2020 06:42:17 13.5 C 59 %
618 20-04-2020 06:52:17 13.6 C 59 %
619 20-04-2020 07:02:17 13.5 C 59 %
620 20-04-2020 07:12:17 13.5 C 59 %
621 20-04-2020 07:22:17 13.5 C 59 %
622 20-04-2020 07:32:17 13.5 C 59 %
623 20-04-2020 07:42:17 13.4 C 59 %
624 20-04-2020 07:52:17 13.4 C 59 %
625 20-04-2020 08:02:18 13.4 C 59 %
Sensor: Nr:Datum:Temp:Feuchte:
G-T/H 626 20-04-2020 08:12:18 13.4 C 59 %
627 20-04-2020 08:22:17 13.4 C 59 %
628 20-04-2020 08:32:17 13.4 C 59 %
629 20-04-2020 08:42:18 13.3 C 59 %
630 20-04-2020 08:52:18 13.4 C 59 %
631 20-04-2020 09:02:17 13.3 C 59 %
632 20-04-2020 09:12:17 13.3 C 59 %
633 20-04-2020 09:22:17 13.3 C 59 %
634 20-04-2020 09:32:17 13.3 C 59 %
635 20-04-2020 09:42:17 13.3 C 59 %
636 20-04-2020 09:52:18 13.2 C 59 %
637 20-04-2020 10:02:18 13.2 C 59 %
638 20-04-2020 10:12:18 13.2 C 59 %
639 20-04-2020 10:22:17 13.2 C 59 %
640 20-04-2020 10:32:17 13.2 C 59 %
641 20-04-2020 10:42:18 13.2 C 59 %
642 20-04-2020 10:52:17 13.2 C 59 %
643 20-04-2020 11:02:18 13.1 C 59 %
644 20-04-2020 11:12:18 13.1 C 59 %
645 20-04-2020 11:22:17 13.1 C 59 %
646 20-04-2020 11:32:17 13.1 C 60 %
647 20-04-2020 11:42:18 13.1 C 60 %
648 20-04-2020 11:52:17 13.1 C 60 %
649 20-04-2020 12:02:17 13.1 C 61 %
650 20-04-2020 12:12:17 13.1 C 61 %
Sensor: Nr:Datum:Temp:Feuchte:
G-T/H 651 20-04-2020 12:22:17 13.1 C 61 %
652 20-04-2020 12:32:17 13.1 C 61 %
653 20-04-2020 12:42:17 13.1 C 61 %
654 20-04-2020 12:52:17 13.1 C 61 %
655 20-04-2020 13:02:17 13.1 C 61 %
656 20-04-2020 13:12:17 13.1 C 62 %
657 20-04-2020 13:22:17 13.1 C 62 %
658 20-04-2020 13:32:17 13.2 C 61 %
659 20-04-2020 13:42:17 13.2 C 61 %
660 20-04-2020 13:52:17 13.2 C 61 %
661 20-04-2020 14:02:17 13.2 C 60 %
662 20-04-2020 14:12:17 13.2 C 60 %
663 20-04-2020 14:22:17 13.2 C 60 %
664 20-04-2020 14:32:18 13.2 C 60 %
665 20-04-2020 14:42:18 13.2 C 59 %
666 20-04-2020 14:52:18 13.3 C 59 %
667 20-04-2020 15:02:17 13.3 C 59 %
668 20-04-2020 15:12:17 13.3 C 59 %
669 20-04-2020 15:22:17 13.3 C 59 %
670 20-04-2020 15:32:17 13.3 C 60 %
671 20-04-2020 15:42:17 13.3 C 60 %
672 20-04-2020 15:52:17 13.3 C 60 %
673 20-04-2020 16:02:17 13.4 C 60 %
674 20-04-2020 16:12:17 13.3 C 60 %
675 20-04-2020 16:22:17 13.4 C 60 %
Sensor: Nr:Datum:Temp:Feuchte:
G-T/H 676 20-04-2020 16:32:17 13.4 C 60 %
677 20-04-2020 16:42:17 13.4 C 60 %
678 20-04-2020 16:52:17 13.4 C 60 %
679 20-04-2020 17:02:17 13.4 C 60 %
680 20-04-2020 17:12:17 13.4 C 60 %
681 20-04-2020 17:22:17 13.4 C 60 %
682 20-04-2020 17:32:17 13.5 C 60 %
683 20-04-2020 17:42:17 13.5 C 60 %
684 20-04-2020 17:52:17 13.5 C 61 %
685 20-04-2020 18:02:18 13.5 C 61 %
686 20-04-2020 18:12:18 13.5 C 61 %
687 20-04-2020 18:22:18 13.5 C 61 %
688 20-04-2020 18:32:17 13.5 C 61 %
689 20-04-2020 18:42:18 13.6 C 61 %
690 20-04-2020 18:52:18 13.6 C 61 %
691 20-04-2020 19:02:17 13.6 C 61 %
692 20-04-2020 19:12:17 13.6 C 61 %
693 20-04-2020 19:22:17 13.7 C 61 %
694 20-04-2020 19:32:17 13.7 C 61 %
695 20-04-2020 19:42:17 13.7 C 61 %
696 20-04-2020 19:52:17 13.6 C 61 %
697 20-04-2020 20:02:17 13.7 C 61 %
698 20-04-2020 20:12:17 13.7 C 61 %
699 20-04-2020 20:22:17 13.7 C 60 %
700 20-04-2020 20:32:17 13.7 C 60 %
Sensor: Nr:Datum:Temp:Feuchte:
G-T/H 701 20-04-2020 20:42:17 13.6 C 60 %
702 20-04-2020 20:52:17 13.6 C 60 %
703 20-04-2020 21:02:17 13.6 C 59 %
704 20-04-2020 21:12:17 13.6 C 60 %
705 20-04-2020 21:22:17 13.6 C 60 %
706 20-04-2020 21:32:17 13.6 C 60 %
707 20-04-2020 21:42:17 13.6 C 60 %
708 20-04-2020 21:52:17 13.6 C 60 %
709 20-04-2020 22:02:17 13.6 C 60 %
710 20-04-2020 22:12:17 13.6 C 60 %
711 20-04-2020 22:22:17 13.6 C 60 %
712 20-04-2020 22:32:17 13.6 C 60 %
713 20-04-2020 22:42:17 13.6 C 60 %
714 20-04-2020 22:52:18 13.6 C 60 %
715 20-04-2020 23:02:17 13.6 C 60 %
716 20-04-2020 23:12:17 13.6 C 60 %
717 20-04-2020 23:22:17 13.6 C 60 %
718 20-04-2020 23:32:18 13.6 C 60 %
719 20-04-2020 23:42:18 13.6 C 59 %
720 20-04-2020 23:52:17 13.6 C 59 %
721 21-04-2020 00:02:17 13.5 C 59 %
722 21-04-2020 00:12:17 13.6 C 59 %
723 21-04-2020 00:22:17 13.5 C 59 %
724 21-04-2020 00:32:17 13.5 C 59 %
725 21-04-2020 00:42:17 13.5 C 59 %
Sensor: Nr:Datum:Temp:Feuchte:
G-T/H 726 21-04-2020 00:52:17 13.6 C 58 %
727 21-04-2020 01:02:18 13.5 C 58 %
728 21-04-2020 01:12:18 13.5 C 58 %
729 21-04-2020 01:22:18 13.6 C 58 %
730 21-04-2020 01:32:18 13.5 C 58 %
731 21-04-2020 01:42:18 13.5 C 58 %
732 21-04-2020 01:52:17 13.5 C 58 %
733 21-04-2020 02:02:17 13.5 C 58 %
734 21-04-2020 02:12:18 13.5 C 58 %
735 21-04-2020 02:22:17 13.5 C 58 %
736 21-04-2020 02:32:18 13.5 C 58 %
737 21-04-2020 02:42:18 13.5 C 58 %
738 21-04-2020 02:52:17 13.4 C 58 %
739 21-04-2020 03:02:17 13.4 C 58 %
740 21-04-2020 03:12:17 13.4 C 58 %
741 21-04-2020 03:22:18 13.4 C 58 %
742 21-04-2020 03:32:17 13.4 C 58 %
743 21-04-2020 03:42:17 13.4 C 58 %
744 21-04-2020 03:52:18 13.4 C 58 %
745 21-04-2020 04:02:18 13.4 C 58 %
746 21-04-2020 04:12:18 13.4 C 58 %
747 21-04-2020 04:22:17 13.4 C 58 %
748 21-04-2020 04:32:17 13.4 C 58 %
749 21-04-2020 04:42:17 13.3 C 58 %
750 21-04-2020 04:52:17 13.3 C 58 %
Sensor: Nr:Datum:Temp:Feuchte:
G-T/H 751 21-04-2020 05:02:17 13.3 C 58 %
752 21-04-2020 05:12:17 13.3 C 58 %
753 21-04-2020 05:22:17 13.3 C 58 %
754 21-04-2020 05:32:18 13.3 C 58 %
755 21-04-2020 05:42:18 13.2 C 58 %
756 21-04-2020 05:52:17 13.2 C 58 %
757 21-04-2020 06:02:17 13.2 C 58 %
758 21-04-2020 06:12:17 13.2 C 58 %
759 21-04-2020 06:22:18 13.2 C 58 %
760 21-04-2020 06:32:18 13.2 C 58 %
761 21-04-2020 06:42:18 13.2 C 58 %
762 21-04-2020 06:52:17 13.2 C 58 %
763 21-04-2020 07:02:18 13.1 C 58 %
764 21-04-2020 07:12:18 13.1 C 58 %
765 21-04-2020 07:22:17 13.1 C 58 %
766 21-04-2020 07:32:17 13.1 C 58 %
767 21-04-2020 07:42:17 13.1 C 58 %
768 21-04-2020 07:52:17 13.1 C 58 %
769 21-04-2020 08:02:17 13.1 C 58 %
770 21-04-2020 08:12:17 13.1 C 58 %
771 21-04-2020 08:22:17 13 C 58 %
772 21-04-2020 08:32:17 13 C 58 %
773 21-04-2020 08:42:18 13 C 58 %
774 21-04-2020 08:52:17 13 C 58 %
775 21-04-2020 09:02:17 13 C 58 %
Sensor: Nr:Datum:Temp:Feuchte:
G-T/H 776 21-04-2020 09:12:17 13 C 58 %
777 21-04-2020 09:22:17 13 C 58 %
778 21-04-2020 09:32:17 12.9 C 59 %
779 21-04-2020 09:42:17 12.9 C 59 %
780 21-04-2020 09:52:17 12.9 C 59 %
781 21-04-2020 10:02:17 12.9 C 59 %
782 21-04-2020 10:12:17 12.9 C 59 %
783 21-04-2020 10:22:17 12.9 C 59 %
784 21-04-2020 10:32:17 12.9 C 59 %
785 21-04-2020 10:42:17 12.8 C 59 %
786 21-04-2020 10:52:17 12.8 C 59 %
787 21-04-2020 11:02:17 12.8 C 59 %
788 21-04-2020 11:12:17 12.8 C 59 %
789 21-04-2020 11:22:17 12.8 C 59 %
790 21-04-2020 11:32:18 12.8 C 59 %
791 21-04-2020 11:42:18 12.8 C 59 %
792 21-04-2020 11:52:18 12.8 C 59 %
793 21-04-2020 12:02:17 12.8 C 59 %
794 21-04-2020 12:12:18 12.8 C 60 %
795 21-04-2020 12:22:17 12.9 C 60 %
796 21-04-2020 12:32:17 12.9 C 60 %
797 21-04-2020 12:42:17 12.9 C 60 %
798 21-04-2020 12:52:17 12.9 C 60 %
799 21-04-2020 13:02:17 12.9 C 61 %
800 21-04-2020 13:12:17 12.9 C 61 %
Sensor: Nr:Datum:Temp:Feuchte:
G-T/H 801 21-04-2020 13:22:17 12.9 C 61 %
802 21-04-2020 13:32:17 12.9 C 61 %
803 21-04-2020 13:42:17 13 C 60 %
804 21-04-2020 13:52:17 13 C 60 %
805 21-04-2020 14:02:17 13 C 60 %
806 21-04-2020 14:12:17 13 C 59 %
807 21-04-2020 14:22:17 13 C 59 %
808 21-04-2020 14:32:17 13.1 C 59 %
809 21-04-2020 14:42:17 13.1 C 59 %
810 21-04-2020 14:52:17 13.1 C 59 %
811 21-04-2020 15:02:17 13.1 C 59 %
812 21-04-2020 15:12:17 13.1 C 59 %
813 21-04-2020 15:22:17 13.1 C 59 %
814 21-04-2020 15:32:18 13.2 C 59 %
815 21-04-2020 15:42:18 13.2 C 59 %
816 21-04-2020 15:52:17 13.2 C 59 %
817 21-04-2020 16:02:18 13.2 C 59 %
818 21-04-2020 16:12:18 13.2 C 59 %
819 21-04-2020 16:22:17 13.3 C 59 %
820 21-04-2020 16:32:17 13.3 C 59 %
821 21-04-2020 16:42:17 13.3 C 59 %
822 21-04-2020 16:52:17 13.3 C 59 %
823 21-04-2020 17:02:17 13.4 C 59 %
824 21-04-2020 17:12:17 13.6 C 55 %
825 21-04-2020 17:22:18 13.5 C 55 %
Sensor: Nr:Datum:Temp:Feuchte:
G-T/H 826 21-04-2020 17:32:17 13.5 C 56 %
827 21-04-2020 17:42:17 13.5 C 57 %
828 21-04-2020 17:52:17 13.5 C 57 %
829 21-04-2020 18:02:18 13.5 C 58 %
830 21-04-2020 18:12:18 13.5 C 58 %
831 21-04-2020 18:22:17 13.5 C 58 %
832 21-04-2020 18:32:17 13.5 C 58 %
833 21-04-2020 18:42:17 13.6 C 59 %
834 21-04-2020 18:52:18 13.6 C 59 %
835 21-04-2020 19:02:17 13.6 C 59 %
836 21-04-2020 19:12:17 13.6 C 59 %
837 21-04-2020 19:22:17 13.6 C 59 %
838 21-04-2020 19:32:18 13.6 C 59 %
839 21-04-2020 19:42:18 13.6 C 60 %
840 21-04-2020 19:52:17 13.6 C 60 %
841 21-04-2020 20:02:17 13.6 C 60 %
842 21-04-2020 20:12:17 13.7 C 60 %
843 21-04-2020 20:22:17 13.6 C 60 %
844 21-04-2020 20:32:17 13.6 C 60 %
845 21-04-2020 20:42:17 13.7 C 60 %
846 21-04-2020 20:52:17 13.6 C 60 %
847 21-04-2020 21:02:18 13.6 C 60 %
848 21-04-2020 21:12:18 13.6 C 60 %
849 21-04-2020 21:22:17 13.6 C 60 %
850 21-04-2020 21:32:17 13.6 C 60 %
Sensor: Nr:Datum:Temp:Feuchte:
G-T/H 851 21-04-2020 21:42:17 13.6 C 60 %
852 21-04-2020 21:52:18 13.6 C 60 %
853 21-04-2020 22:02:17 13.6 C 60 %
854 21-04-2020 22:12:17 13.7 C 60 %
855 21-04-2020 22:22:17 13.6 C 60 %
856 21-04-2020 22:32:17 13.7 C 60 %
857 21-04-2020 22:42:17 13.6 C 60 %
858 21-04-2020 22:52:18 13.6 C 60 %
859 21-04-2020 23:02:18 13.6 C 60 %
860 21-04-2020 23:12:18 13.6 C 60 %
861 21-04-2020 23:22:17 13.7 C 60 %
862 21-04-2020 23:32:18 13.6 C 60 %
863 21-04-2020 23:42:18 13.7 C 60 %
864 21-04-2020 23:52:18 13.6 C 60 %
865 22-04-2020 00:02:18 13.6 C 60 %
866 22-04-2020 00:12:18 13.6 C 60 %
867 22-04-2020 00:22:17 13.7 C 60 %
868 22-04-2020 00:32:18 13.6 C 60 %
869 22-04-2020 00:42:18 13.6 C 60 %
870 22-04-2020 00:52:17 13.6 C 60 %
871 22-04-2020 01:02:17 13.6 C 60 %
872 22-04-2020 01:12:17 13.6 C 60 %
873 22-04-2020 01:22:17 13.6 C 60 %
874 22-04-2020 01:32:18 13.6 C 60 %
875 22-04-2020 01:42:18 13.6 C 59 %
Sensor: Nr:Datum:Temp:Feuchte:
G-T/H 876 22-04-2020 01:52:17 13.6 C 59 %
877 22-04-2020 02:02:17 13.6 C 59 %
878 22-04-2020 02:12:17 13.6 C 59 %
879 22-04-2020 02:22:17 13.6 C 59 %
880 22-04-2020 02:32:17 13.5 C 59 %
881 22-04-2020 02:42:17 13.5 C 59 %
882 22-04-2020 02:52:17 13.5 C 59 %
883 22-04-2020 03:02:17 13.6 C 59 %
884 22-04-2020 03:12:17 13.5 C 59 %
885 22-04-2020 03:22:18 13.5 C 59 %
886 22-04-2020 03:32:18 13.5 C 59 %
887 22-04-2020 03:42:18 13.5 C 58 %
888 22-04-2020 03:52:17 13.5 C 58 %
889 22-04-2020 04:02:18 13.5 C 58 %
890 22-04-2020 04:12:18 13.5 C 58 %
891 22-04-2020 04:22:17 13.5 C 58 %
892 22-04-2020 04:32:18 13.4 C 58 %
893 22-04-2020 04:42:18 13.4 C 58 %
894 22-04-2020 04:52:17 13.5 C 58 %
895 22-04-2020 05:02:18 13.4 C 58 %
896 22-04-2020 05:12:18 13.4 C 58 %
897 22-04-2020 05:22:17 13.4 C 58 %
898 22-04-2020 05:32:17 13.4 C 58 %
899 22-04-2020 05:42:18 13.4 C 58 %
900 22-04-2020 05:52:17 13.4 C 58 %
Sensor: Nr:Datum:Temp:Feuchte:
G-T/H 901 22-04-2020 06:02:18 13.3 C 58 %
902 22-04-2020 06:12:18 13.3 C 58 %
903 22-04-2020 06:22:17 13.3 C 58 %
904 22-04-2020 06:32:17 13.3 C 58 %
905 22-04-2020 06:42:17 13.3 C 58 %
906 22-04-2020 06:52:17 13.3 C 58 %
907 22-04-2020 07:02:17 13.3 C 58 %
908 22-04-2020 07:12:17 13.2 C 58 %
909 22-04-2020 07:22:18 13.2 C 58 %
910 22-04-2020 07:32:17 13.2 C 58 %
911 22-04-2020 07:42:17 13.2 C 58 %
912 22-04-2020 07:52:17 13.2 C 58 %
913 22-04-2020 08:02:17 13.2 C 58 %
914 22-04-2020 08:12:17 13.2 C 58 %
915 22-04-2020 08:22:17 13.2 C 58 %
916 22-04-2020 08:32:17 13.1 C 58 %
917 22-04-2020 08:42:17 13.1 C 58 %
918 22-04-2020 08:52:18 13.1 C 58 %
919 22-04-2020 09:02:18 13.1 C 58 %
920 22-04-2020 09:12:18 13.1 C 58 %
921 22-04-2020 09:22:17 13.1 C 58 %
922 22-04-2020 09:32:17 13.1 C 58 %
923 22-04-2020 09:42:17 13.1 C 58 %
924 22-04-2020 09:52:17 13.1 C 58 %
925 22-04-2020 10:02:17 13.1 C 58 %
Sensor: Nr:Datum:Temp:Feuchte:
G-T/H 926 22-04-2020 10:12:17 13 C 58 %
927 22-04-2020 10:22:17 13 C 58 %
928 22-04-2020 10:32:17 13 C 58 %
929 22-04-2020 10:42:17 13 C 59 %
930 22-04-2020 10:52:17 13 C 59 %
931 22-04-2020 11:02:17 13 C 59 %
932 22-04-2020 11:12:17 13 C 59 %
933 22-04-2020 11:22:17 13 C 59 %
934 22-04-2020 11:32:17 13 C 59 %
935 22-04-2020 11:42:17 13 C 60 %
936 22-04-2020 11:52:18 13 C 60 %
937 22-04-2020 12:02:18 13 C 60 %
938 22-04-2020 12:12:18 13 C 60 %
939 22-04-2020 12:22:17 13 C 60 %
940 22-04-2020 12:32:17 13 C 60 %
941 22-04-2020 12:42:17 13.1 C 60 %
942 22-04-2020 12:52:18 13.1 C 60 %
943 22-04-2020 13:02:17 13.1 C 60 %
944 22-04-2020 13:12:17 13.1 C 60 %
945 22-04-2020 13:22:17 13.1 C 60 %
946 22-04-2020 13:32:17 13.1 C 60 %
947 22-04-2020 13:42:17 13.1 C 60 %
948 22-04-2020 13:52:17 13.1 C 60 %
949 22-04-2020 14:02:17 13.2 C 60 %
950 22-04-2020 14:12:17 13.2 C 60 %
Sensor: Nr:Datum:Temp:Feuchte:
G-T/H 951 22-04-2020 14:22:17 13.2 C 60 %
952 22-04-2020 14:32:17 13.2 C 60 %
953 22-04-2020 14:42:17 13.2 C 60 %
954 22-04-2020 14:52:17 13.3 C 60 %
955 22-04-2020 15:02:17 13.3 C 60 %
956 22-04-2020 15:12:18 13.3 C 60 %
957 22-04-2020 15:22:17 13.3 C 60 %
958 22-04-2020 15:32:17 13.3 C 60 %
959 22-04-2020 15:42:17 13.3 C 60 %
960 22-04-2020 15:52:17 13.4 C 61 %
961 22-04-2020 16:02:17 13.4 C 61 %
962 22-04-2020 16:12:17 13.4 C 61 %
963 22-04-2020 16:22:17 13.4 C 61 %
964 22-04-2020 16:32:18 13.5 C 61 %
965 22-04-2020 16:42:18 13.5 C 61 %
966 22-04-2020 16:52:17 13.5 C 61 %
967 22-04-2020 17:02:17 13.5 C 61 %
968 22-04-2020 17:12:17 13.6 C 61 %
969 22-04-2020 17:22:17 13.6 C 61 %
970 22-04-2020 17:32:17 13.6 C 61 %
971 22-04-2020 17:42:17 13.6 C 61 %
972 22-04-2020 17:52:17 13.7 C 61 %
973 22-04-2020 18:02:17 13.7 C 60 %
974 22-04-2020 18:12:17 13.7 C 60 %
975 22-04-2020 18:22:17 13.7 C 59 %
Sensor: Nr:Datum:Temp:Feuchte:
G-T/H 976 22-04-2020 18:32:17 13.8 C 59 %
977 22-04-2020 18:42:17 13.8 C 59 %
978 22-04-2020 18:52:17 13.8 C 60 %
979 22-04-2020 19:02:17 13.8 C 60 %
980 22-04-2020 19:12:17 13.8 C 60 %
981 22-04-2020 19:22:17 13.8 C 60 %
982 22-04-2020 19:32:18 13.8 C 60 %
983 22-04-2020 19:42:18 13.8 C 61 %
984 22-04-2020 19:52:17 13.8 C 61 %
985 22-04-2020 20:02:18 13.8 C 61 %
986 22-04-2020 20:12:18 13.9 C 61 %
987 22-04-2020 20:22:17 13.8 C 61 %
988 22-04-2020 20:32:17 13.9 C 61 %
989 22-04-2020 20:42:17 13.9 C 61 %
990 22-04-2020 20:52:17 13.9 C 61 %
991 22-04-2020 21:02:17 13.8 C 60 %
992 22-04-2020 21:12:17 13.8 C 60 %
993 22-04-2020 21:22:17 13.9 C 60 %
994 22-04-2020 21:32:17 13.9 C 60 %
995 22-04-2020 21:42:17 13.8 C 60 %
996 22-04-2020 21:52:17 13.8 C 60 %
997 22-04-2020 22:02:17 13.8 C 60 %
998 22-04-2020 22:12:17 13.8 C 60 %
999 22-04-2020 22:22:17 13.8 C 60 %
1000 22-04-2020 22:32:17 13.8 C 60 %
Sensor: Nr:Datum:Temp:Feuchte:
G-T/H 1001 22-04-2020 22:42:17 13.9 C 60 %
1002 22-04-2020 22:52:18 13.9 C 60 %
1003 22-04-2020 23:02:17 13.8 C 60 %
1004 22-04-2020 23:12:17 13.8 C 60 %
1005 22-04-2020 23:22:17 13.8 C 60 %
1006 22-04-2020 23:32:17 13.8 C 60 %
1007 22-04-2020 23:42:17 13.8 C 60 %
1008 22-04-2020 23:52:18 13.9 C 60 %

Legende:
   Min
   Max


Maximal/Minimal-Werte vom 16.04.2020 - 22.04.2020

Sensor Min Max Avg
Temp
(Aussen-T/F)
1.4 °C
16-04-2020  06:32:17
32.1 °C
17-04-2020  14:52:17
14.02 °C
Feuchte
(Aussen-T/F)
20 %
16-04-2020  11:22:17
45 %
16-04-2020  06:42:17
27.56 %
Temp
(G-T/H)
6.8 °C
16-04-2020  07:22:17
18.8 °C
17-04-2020  19:12:17
13.67 °C
Feuchte
(G-T/H)
41 %
16-04-2020  16:42:18
68 %
18-04-2020  18:42:18
58.96 %

Die Daten stammen von einer Davis Vantage Pro 2 Wetter-Station und werden unter Linux mit der Software wview2wettercgi und aufbereitet. Alle Angaben erfolgen ohne Gewähr für ihre Vollständigkeit oder Richtigkeit.
Kontakt: Rainer Krienke krienke@uni-koblenz.de . Meine Webseiten an der Uni Koblenz oder privat.
Version: $Revision: 0.78 $